<?xml version="1.0" encoding="UTF-8" standalone="no" ?>
<gpx xmlns="http://www.topografix.com/GPX/1/1" xmlns:xsi="http://www.w3.org/2001/XMLSchema-instance" xsi:schemaLocation="http://www.topografix.com/GPX/1/1 http://www.topografix.com/GPX/1/1/gpx.xsd" version="1.1" creator="VisuGPX - https://www.visugpx.com">
  <metadata>
    <name>Digne sortie enduro 2015 Jour 1</name>
    <desc><![CDATA[Superbe sortie VTT autour de Digne. 
Un tracé parfait.]]></desc>
  </metadata>
  <trk>
    <name><![CDATA[Digne J1 on GPSies.com]]></name>
    <trkseg>
      <trkpt lat="44.15603" lon="6.30473">
        <ele>738</ele>
        <time>2010-01-01T00:00:00Z</time>
      </trkpt>
      <trkpt lat="44.15621" lon="6.30416">
        <ele>733</ele>
        <time>2010-01-01T00:00:17Z</time>
      </trkpt>
      <trkpt lat="44.15634" lon="6.30323">
        <ele>728</ele>
        <time>2010-01-01T00:00:45Z</time>
      </trkpt>
      <trkpt lat="44.15687" lon="6.30253">
        <ele>728</ele>
        <time>2010-01-01T00:01:14Z</time>
      </trkpt>
      <trkpt lat="44.15733" lon="6.30212">
        <ele>731</ele>
        <time>2010-01-01T00:01:36Z</time>
      </trkpt>
      <trkpt lat="44.1577" lon="6.30197">
        <ele>737</ele>
        <time>2010-01-01T00:01:51Z</time>
      </trkpt>
      <trkpt lat="44.15767" lon="6.30156">
        <ele>739</ele>
        <time>2010-01-01T00:02:03Z</time>
      </trkpt>
      <trkpt lat="44.15752" lon="6.30128">
        <ele>740</ele>
        <time>2010-01-01T00:02:13Z</time>
      </trkpt>
      <trkpt lat="44.15809" lon="6.30149">
        <ele>743</ele>
        <time>2010-01-01T00:02:37Z</time>
      </trkpt>
      <trkpt lat="44.15866" lon="6.30187">
        <ele>748</ele>
        <time>2010-01-01T00:03:02Z</time>
      </trkpt>
      <trkpt lat="44.15892" lon="6.30236">
        <ele>749</ele>
        <time>2010-01-01T00:03:20Z</time>
      </trkpt>
      <trkpt lat="44.15913" lon="6.30312">
        <ele>750</ele>
        <time>2010-01-01T00:03:43Z</time>
      </trkpt>
      <trkpt lat="44.15935" lon="6.30359">
        <ele>756</ele>
        <time>2010-01-01T00:03:59Z</time>
      </trkpt>
      <trkpt lat="44.15987" lon="6.3042">
        <ele>759</ele>
        <time>2010-01-01T00:04:26Z</time>
      </trkpt>
      <trkpt lat="44.16017" lon="6.30455">
        <ele>763</ele>
        <time>2010-01-01T00:04:42Z</time>
      </trkpt>
      <trkpt lat="44.16052" lon="6.30528">
        <ele>766</ele>
        <time>2010-01-01T00:05:07Z</time>
      </trkpt>
      <trkpt lat="44.16078" lon="6.30602">
        <ele>769</ele>
        <time>2010-01-01T00:05:31Z</time>
      </trkpt>
      <trkpt lat="44.16115" lon="6.3071">
        <ele>775</ele>
        <time>2010-01-01T00:06:05Z</time>
      </trkpt>
      <trkpt lat="44.16149" lon="6.30815">
        <ele>777</ele>
        <time>2010-01-01T00:06:38Z</time>
      </trkpt>
      <trkpt lat="44.16181" lon="6.30992">
        <ele>780</ele>
        <time>2010-01-01T00:07:31Z</time>
      </trkpt>
      <trkpt lat="44.16168" lon="6.31229">
        <ele>783</ele>
        <time>2010-01-01T00:08:39Z</time>
      </trkpt>
      <trkpt lat="44.16192" lon="6.31427">
        <ele>788</ele>
        <time>2010-01-01T00:09:37Z</time>
      </trkpt>
      <trkpt lat="44.16206" lon="6.31503">
        <ele>790</ele>
        <time>2010-01-01T00:09:59Z</time>
      </trkpt>
      <trkpt lat="44.16233" lon="6.31635">
        <ele>793</ele>
        <time>2010-01-01T00:10:39Z</time>
      </trkpt>
      <trkpt lat="44.16262" lon="6.31708">
        <ele>802</ele>
        <time>2010-01-01T00:11:03Z</time>
      </trkpt>
      <trkpt lat="44.16292" lon="6.31771">
        <ele>805</ele>
        <time>2010-01-01T00:11:24Z</time>
      </trkpt>
      <trkpt lat="44.16317" lon="6.31829">
        <ele>807</ele>
        <time>2010-01-01T00:11:44Z</time>
      </trkpt>
      <trkpt lat="44.16348" lon="6.31894">
        <ele>814</ele>
        <time>2010-01-01T00:12:06Z</time>
      </trkpt>
      <trkpt lat="44.16355" lon="6.31954">
        <ele>814</ele>
        <time>2010-01-01T00:12:24Z</time>
      </trkpt>
      <trkpt lat="44.1631" lon="6.32054">
        <ele>814</ele>
        <time>2010-01-01T00:12:58Z</time>
      </trkpt>
      <trkpt lat="44.16322" lon="6.32108">
        <ele>822</ele>
        <time>2010-01-01T00:13:14Z</time>
      </trkpt>
      <trkpt lat="44.16343" lon="6.32133">
        <ele>825</ele>
        <time>2010-01-01T00:13:25Z</time>
      </trkpt>
      <trkpt lat="44.1628" lon="6.32121">
        <ele>823</ele>
        <time>2010-01-01T00:13:51Z</time>
      </trkpt>
      <trkpt lat="44.16208" lon="6.3214">
        <ele>819</ele>
        <time>2010-01-01T00:14:20Z</time>
      </trkpt>
      <trkpt lat="44.16146" lon="6.32265">
        <ele>817</ele>
        <time>2010-01-01T00:15:03Z</time>
      </trkpt>
      <trkpt lat="44.1612" lon="6.32298">
        <ele>816</ele>
        <time>2010-01-01T00:15:17Z</time>
      </trkpt>
      <trkpt lat="44.16083" lon="6.32367">
        <ele>815</ele>
        <time>2010-01-01T00:15:42Z</time>
      </trkpt>
      <trkpt lat="44.16041" lon="6.32279">
        <ele>809</ele>
        <time>2010-01-01T00:16:12Z</time>
      </trkpt>
      <trkpt lat="44.16032" lon="6.32247">
        <ele>806</ele>
        <time>2010-01-01T00:16:22Z</time>
      </trkpt>
      <trkpt lat="44.16081" lon="6.3236">
        <ele>815</ele>
        <time>2010-01-01T00:17:00Z</time>
      </trkpt>
      <trkpt lat="44.16119" lon="6.32285">
        <ele>815</ele>
        <time>2010-01-01T00:17:26Z</time>
      </trkpt>
      <trkpt lat="44.16126" lon="6.32254">
        <ele>815</ele>
        <time>2010-01-01T00:17:36Z</time>
      </trkpt>
      <trkpt lat="44.16116" lon="6.32277">
        <ele>814</ele>
        <time>2010-01-01T00:17:43Z</time>
      </trkpt>
      <trkpt lat="44.16137" lon="6.32255">
        <ele>816</ele>
        <time>2010-01-01T00:17:53Z</time>
      </trkpt>
      <trkpt lat="44.16162" lon="6.32278">
        <ele>818</ele>
        <time>2010-01-01T00:18:06Z</time>
      </trkpt>
      <trkpt lat="44.16179" lon="6.32288">
        <ele>827</ele>
        <time>2010-01-01T00:18:13Z</time>
      </trkpt>
      <trkpt lat="44.16195" lon="6.32302">
        <ele>829</ele>
        <time>2010-01-01T00:18:21Z</time>
      </trkpt>
      <trkpt lat="44.1622" lon="6.32294">
        <ele>831</ele>
        <time>2010-01-01T00:18:31Z</time>
      </trkpt>
      <trkpt lat="44.16245" lon="6.32279">
        <ele>832</ele>
        <time>2010-01-01T00:18:42Z</time>
      </trkpt>
      <trkpt lat="44.1622" lon="6.3234">
        <ele>835</ele>
        <time>2010-01-01T00:19:02Z</time>
      </trkpt>
      <trkpt lat="44.16214" lon="6.32421">
        <ele>837</ele>
        <time>2010-01-01T00:19:25Z</time>
      </trkpt>
      <trkpt lat="44.16202" lon="6.32521">
        <ele>841</ele>
        <time>2010-01-01T00:19:54Z</time>
      </trkpt>
      <trkpt lat="44.16192" lon="6.32549">
        <ele>841</ele>
        <time>2010-01-01T00:20:04Z</time>
      </trkpt>
      <trkpt lat="44.16193" lon="6.32586">
        <ele>844</ele>
        <time>2010-01-01T00:20:14Z</time>
      </trkpt>
      <trkpt lat="44.16212" lon="6.3262">
        <ele>847</ele>
        <time>2010-01-01T00:20:26Z</time>
      </trkpt>
      <trkpt lat="44.16238" lon="6.32632">
        <ele>850</ele>
        <time>2010-01-01T00:20:38Z</time>
      </trkpt>
      <trkpt lat="44.16241" lon="6.32695">
        <ele>853</ele>
        <time>2010-01-01T00:20:56Z</time>
      </trkpt>
      <trkpt lat="44.1625" lon="6.32746">
        <ele>860</ele>
        <time>2010-01-01T00:21:11Z</time>
      </trkpt>
      <trkpt lat="44.16236" lon="6.32798">
        <ele>860</ele>
        <time>2010-01-01T00:21:27Z</time>
      </trkpt>
      <trkpt lat="44.16237" lon="6.32823">
        <ele>861</ele>
        <time>2010-01-01T00:21:34Z</time>
      </trkpt>
      <trkpt lat="44.1625" lon="6.32843">
        <ele>862</ele>
        <time>2010-01-01T00:21:42Z</time>
      </trkpt>
      <trkpt lat="44.16255" lon="6.32875">
        <ele>861</ele>
        <time>2010-01-01T00:21:51Z</time>
      </trkpt>
      <trkpt lat="44.16263" lon="6.32906">
        <ele>862</ele>
        <time>2010-01-01T00:22:01Z</time>
      </trkpt>
      <trkpt lat="44.16252" lon="6.32948">
        <ele>866</ele>
        <time>2010-01-01T00:22:13Z</time>
      </trkpt>
      <trkpt lat="44.16237" lon="6.32988">
        <ele>874</ele>
        <time>2010-01-01T00:22:26Z</time>
      </trkpt>
      <trkpt lat="44.16228" lon="6.33024">
        <ele>882</ele>
        <time>2010-01-01T00:22:37Z</time>
      </trkpt>
      <trkpt lat="44.1622" lon="6.33063">
        <ele>885</ele>
        <time>2010-01-01T00:22:49Z</time>
      </trkpt>
      <trkpt lat="44.16203" lon="6.33173">
        <ele>900</ele>
        <time>2010-01-01T00:23:21Z</time>
      </trkpt>
      <trkpt lat="44.16166" lon="6.33195">
        <ele>904</ele>
        <time>2010-01-01T00:23:37Z</time>
      </trkpt>
      <trkpt lat="44.16175" lon="6.33173">
        <ele>900</ele>
        <time>2010-01-01T00:23:45Z</time>
      </trkpt>
      <trkpt lat="44.16174" lon="6.33134">
        <ele>894</ele>
        <time>2010-01-01T00:23:56Z</time>
      </trkpt>
      <trkpt lat="44.1616" lon="6.33097">
        <ele>890</ele>
        <time>2010-01-01T00:24:08Z</time>
      </trkpt>
      <trkpt lat="44.16134" lon="6.33089">
        <ele>891</ele>
        <time>2010-01-01T00:24:19Z</time>
      </trkpt>
      <trkpt lat="44.1612" lon="6.33105">
        <ele>892</ele>
        <time>2010-01-01T00:24:26Z</time>
      </trkpt>
      <trkpt lat="44.16106" lon="6.33125">
        <ele>894</ele>
        <time>2010-01-01T00:24:34Z</time>
      </trkpt>
      <trkpt lat="44.16097" lon="6.33147">
        <ele>897</ele>
        <time>2010-01-01T00:24:41Z</time>
      </trkpt>
      <trkpt lat="44.16017" lon="6.33133">
        <ele>904</ele>
        <time>2010-01-01T00:25:14Z</time>
      </trkpt>
      <trkpt lat="44.15956" lon="6.33061">
        <ele>897</ele>
        <time>2010-01-01T00:25:46Z</time>
      </trkpt>
      <trkpt lat="44.15873" lon="6.33015">
        <ele>922</ele>
        <time>2010-01-01T00:26:21Z</time>
      </trkpt>
      <trkpt lat="44.1585" lon="6.32935">
        <ele>896</ele>
        <time>2010-01-01T00:26:46Z</time>
      </trkpt>
      <trkpt lat="44.15816" lon="6.32927">
        <ele>912</ele>
        <time>2010-01-01T00:27:00Z</time>
      </trkpt>
      <trkpt lat="44.15751" lon="6.32852">
        <ele>893</ele>
        <time>2010-01-01T00:27:34Z</time>
      </trkpt>
      <trkpt lat="44.15699" lon="6.3281">
        <ele>901</ele>
        <time>2010-01-01T00:27:58Z</time>
      </trkpt>
      <trkpt lat="44.15629" lon="6.32788">
        <ele>944</ele>
        <time>2010-01-01T00:28:26Z</time>
      </trkpt>
      <trkpt lat="44.15718" lon="6.32686">
        <ele>890</ele>
        <time>2010-01-01T00:29:12Z</time>
      </trkpt>
      <trkpt lat="44.15655" lon="6.32574">
        <ele>903</ele>
        <time>2010-01-01T00:29:53Z</time>
      </trkpt>
      <trkpt lat="44.15637" lon="6.32455">
        <ele>888</ele>
        <time>2010-01-01T00:30:28Z</time>
      </trkpt>
      <trkpt lat="44.15566" lon="6.32371">
        <ele>898</ele>
        <time>2010-01-01T00:31:05Z</time>
      </trkpt>
      <trkpt lat="44.15497" lon="6.32288">
        <ele>913</ele>
        <time>2010-01-01T00:31:42Z</time>
      </trkpt>
      <trkpt lat="44.15475" lon="6.322">
        <ele>890</ele>
        <time>2010-01-01T00:32:09Z</time>
      </trkpt>
      <trkpt lat="44.15436" lon="6.32135">
        <ele>881</ele>
        <time>2010-01-01T00:32:33Z</time>
      </trkpt>
      <trkpt lat="44.15364" lon="6.32028">
        <ele>882</ele>
        <time>2010-01-01T00:33:15Z</time>
      </trkpt>
      <trkpt lat="44.15285" lon="6.31934">
        <ele>883</ele>
        <time>2010-01-01T00:33:57Z</time>
      </trkpt>
      <trkpt lat="44.15243" lon="6.3188">
        <ele>884</ele>
        <time>2010-01-01T00:34:20Z</time>
      </trkpt>
      <trkpt lat="44.15161" lon="6.31787">
        <ele>888</ele>
        <time>2010-01-01T00:35:02Z</time>
      </trkpt>
      <trkpt lat="44.15068" lon="6.31709">
        <ele>903</ele>
        <time>2010-01-01T00:35:45Z</time>
      </trkpt>
      <trkpt lat="44.15082" lon="6.31612">
        <ele>874</ele>
        <time>2010-01-01T00:36:14Z</time>
      </trkpt>
      <trkpt lat="44.15019" lon="6.31557">
        <ele>865</ele>
        <time>2010-01-01T00:36:43Z</time>
      </trkpt>
      <trkpt lat="44.14962" lon="6.31482">
        <ele>869</ele>
        <time>2010-01-01T00:37:15Z</time>
      </trkpt>
      <trkpt lat="44.14938" lon="6.31384">
        <ele>851</ele>
        <time>2010-01-01T00:37:44Z</time>
      </trkpt>
      <trkpt lat="44.14895" lon="6.31315">
        <ele>861</ele>
        <time>2010-01-01T00:38:11Z</time>
      </trkpt>
      <trkpt lat="44.14853" lon="6.31226">
        <ele>844</ele>
        <time>2010-01-01T00:38:41Z</time>
      </trkpt>
      <trkpt lat="44.14782" lon="6.31155">
        <ele>838</ele>
        <time>2010-01-01T00:39:16Z</time>
      </trkpt>
      <trkpt lat="44.14719" lon="6.31069">
        <ele>828</ele>
        <time>2010-01-01T00:39:51Z</time>
      </trkpt>
      <trkpt lat="44.14638" lon="6.30994">
        <ele>822</ele>
        <time>2010-01-01T00:40:30Z</time>
      </trkpt>
      <trkpt lat="44.14568" lon="6.30953">
        <ele>838</ele>
        <time>2010-01-01T00:41:01Z</time>
      </trkpt>
      <trkpt lat="44.14504" lon="6.30883">
        <ele>815</ele>
        <time>2010-01-01T00:41:33Z</time>
      </trkpt>
      <trkpt lat="44.14446" lon="6.30837">
        <ele>830</ele>
        <time>2010-01-01T00:42:00Z</time>
      </trkpt>
      <trkpt lat="44.14372" lon="6.30751">
        <ele>817</ele>
        <time>2010-01-01T00:42:38Z</time>
      </trkpt>
      <trkpt lat="44.14338" lon="6.30756">
        <ele>817</ele>
        <time>2010-01-01T00:42:52Z</time>
      </trkpt>
      <trkpt lat="44.14311" lon="6.30756">
        <ele>834</ele>
        <time>2010-01-01T00:43:03Z</time>
      </trkpt>
      <trkpt lat="44.14282" lon="6.30751">
        <ele>841</ele>
        <time>2010-01-01T00:43:15Z</time>
      </trkpt>
      <trkpt lat="44.14256" lon="6.30745">
        <ele>830</ele>
        <time>2010-01-01T00:43:25Z</time>
      </trkpt>
      <trkpt lat="44.1423" lon="6.30722">
        <ele>840</ele>
        <time>2010-01-01T00:43:37Z</time>
      </trkpt>
      <trkpt lat="44.142" lon="6.30711">
        <ele>846</ele>
        <time>2010-01-01T00:43:50Z</time>
      </trkpt>
      <trkpt lat="44.14172" lon="6.30685">
        <ele>845</ele>
        <time>2010-01-01T00:44:03Z</time>
      </trkpt>
      <trkpt lat="44.14146" lon="6.30658">
        <ele>852</ele>
        <time>2010-01-01T00:44:16Z</time>
      </trkpt>
      <trkpt lat="44.14121" lon="6.30631">
        <ele>857</ele>
        <time>2010-01-01T00:44:29Z</time>
      </trkpt>
      <trkpt lat="44.14109" lon="6.30597">
        <ele>855</ele>
        <time>2010-01-01T00:44:40Z</time>
      </trkpt>
      <trkpt lat="44.14093" lon="6.30557">
        <ele>841</ele>
        <time>2010-01-01T00:44:53Z</time>
      </trkpt>
      <trkpt lat="44.14069" lon="6.30512">
        <ele>852</ele>
        <time>2010-01-01T00:45:09Z</time>
      </trkpt>
      <trkpt lat="44.14042" lon="6.30536">
        <ele>857</ele>
        <time>2010-01-01T00:45:22Z</time>
      </trkpt>
      <trkpt lat="44.14014" lon="6.30574">
        <ele>862</ele>
        <time>2010-01-01T00:45:38Z</time>
      </trkpt>
      <trkpt lat="44.13987" lon="6.30597">
        <ele>868</ele>
        <time>2010-01-01T00:45:50Z</time>
      </trkpt>
      <trkpt lat="44.13968" lon="6.30651">
        <ele>873</ele>
        <time>2010-01-01T00:46:08Z</time>
      </trkpt>
      <trkpt lat="44.13964" lon="6.30708">
        <ele>888</ele>
        <time>2010-01-01T00:46:24Z</time>
      </trkpt>
      <trkpt lat="44.1395" lon="6.30742">
        <ele>888</ele>
        <time>2010-01-01T00:46:36Z</time>
      </trkpt>
      <trkpt lat="44.13918" lon="6.3078">
        <ele>891</ele>
        <time>2010-01-01T00:46:52Z</time>
      </trkpt>
      <trkpt lat="44.13914" lon="6.30799">
        <ele>866</ele>
        <time>2010-01-01T00:46:58Z</time>
      </trkpt>
      <trkpt lat="44.1394" lon="6.30828">
        <ele>893</ele>
        <time>2010-01-01T00:47:11Z</time>
      </trkpt>
      <trkpt lat="44.13973" lon="6.30851">
        <ele>893</ele>
        <time>2010-01-01T00:47:26Z</time>
      </trkpt>
      <trkpt lat="44.13995" lon="6.30864">
        <ele>895</ele>
        <time>2010-01-01T00:47:36Z</time>
      </trkpt>
      <trkpt lat="44.14026" lon="6.30886">
        <ele>912</ele>
        <time>2010-01-01T00:47:50Z</time>
      </trkpt>
      <trkpt lat="44.14058" lon="6.30912">
        <ele>916</ele>
        <time>2010-01-01T00:48:04Z</time>
      </trkpt>
      <trkpt lat="44.14083" lon="6.30934">
        <ele>906</ele>
        <time>2010-01-01T00:48:16Z</time>
      </trkpt>
      <trkpt lat="44.14116" lon="6.30961">
        <ele>916</ele>
        <time>2010-01-01T00:48:31Z</time>
      </trkpt>
      <trkpt lat="44.14135" lon="6.30976">
        <ele>916</ele>
        <time>2010-01-01T00:48:40Z</time>
      </trkpt>
      <trkpt lat="44.14171" lon="6.31003">
        <ele>920</ele>
        <time>2010-01-01T00:48:57Z</time>
      </trkpt>
      <trkpt lat="44.14204" lon="6.31028">
        <ele>923</ele>
        <time>2010-01-01T00:49:12Z</time>
      </trkpt>
      <trkpt lat="44.14231" lon="6.31049">
        <ele>924</ele>
        <time>2010-01-01T00:49:24Z</time>
      </trkpt>
      <trkpt lat="44.14266" lon="6.31082">
        <ele>931</ele>
        <time>2010-01-01T00:49:41Z</time>
      </trkpt>
      <trkpt lat="44.143" lon="6.31132">
        <ele>936</ele>
        <time>2010-01-01T00:50:01Z</time>
      </trkpt>
      <trkpt lat="44.14289" lon="6.31089">
        <ele>935</ele>
        <time>2010-01-01T00:50:14Z</time>
      </trkpt>
      <trkpt lat="44.14268" lon="6.31032">
        <ele>937</ele>
        <time>2010-01-01T00:50:32Z</time>
      </trkpt>
      <trkpt lat="44.14255" lon="6.31">
        <ele>938</ele>
        <time>2010-01-01T00:50:43Z</time>
      </trkpt>
      <trkpt lat="44.14281" lon="6.30969">
        <ele>930</ele>
        <time>2010-01-01T00:50:57Z</time>
      </trkpt>
      <trkpt lat="44.1431" lon="6.30984">
        <ele>933</ele>
        <time>2010-01-01T00:51:09Z</time>
      </trkpt>
      <trkpt lat="44.14352" lon="6.31004">
        <ele>943</ele>
        <time>2010-01-01T00:51:27Z</time>
      </trkpt>
      <trkpt lat="44.14393" lon="6.31022">
        <ele>941</ele>
        <time>2010-01-01T00:51:44Z</time>
      </trkpt>
      <trkpt lat="44.14422" lon="6.3105">
        <ele>934</ele>
        <time>2010-01-01T00:51:58Z</time>
      </trkpt>
      <trkpt lat="44.14463" lon="6.31101">
        <ele>948</ele>
        <time>2010-01-01T00:52:20Z</time>
      </trkpt>
      <trkpt lat="44.14497" lon="6.31163">
        <ele>957</ele>
        <time>2010-01-01T00:52:42Z</time>
      </trkpt>
      <trkpt lat="44.14514" lon="6.31203">
        <ele>962</ele>
        <time>2010-01-01T00:52:56Z</time>
      </trkpt>
      <trkpt lat="44.14543" lon="6.31234">
        <ele>964</ele>
        <time>2010-01-01T00:53:10Z</time>
      </trkpt>
      <trkpt lat="44.14572" lon="6.31267">
        <ele>978</ele>
        <time>2010-01-01T00:53:25Z</time>
      </trkpt>
      <trkpt lat="44.14596" lon="6.31293">
        <ele>976</ele>
        <time>2010-01-01T00:53:38Z</time>
      </trkpt>
      <trkpt lat="44.1463" lon="6.31313">
        <ele>976</ele>
        <time>2010-01-01T00:53:52Z</time>
      </trkpt>
      <trkpt lat="44.14656" lon="6.31332">
        <ele>978</ele>
        <time>2010-01-01T00:54:04Z</time>
      </trkpt>
      <trkpt lat="44.14683" lon="6.31354">
        <ele>981</ele>
        <time>2010-01-01T00:54:17Z</time>
      </trkpt>
      <trkpt lat="44.14707" lon="6.31379">
        <ele>983</ele>
        <time>2010-01-01T00:54:29Z</time>
      </trkpt>
      <trkpt lat="44.14698" lon="6.31412">
        <ele>989</ele>
        <time>2010-01-01T00:54:39Z</time>
      </trkpt>
      <trkpt lat="44.14676" lon="6.31412">
        <ele>997</ele>
        <time>2010-01-01T00:54:48Z</time>
      </trkpt>
      <trkpt lat="44.14644" lon="6.3142">
        <ele>1015</ele>
        <time>2010-01-01T00:55:00Z</time>
      </trkpt>
      <trkpt lat="44.14613" lon="6.31412">
        <ele>1003</ele>
        <time>2010-01-01T00:55:13Z</time>
      </trkpt>
      <trkpt lat="44.14578" lon="6.31403">
        <ele>1012</ele>
        <time>2010-01-01T00:55:27Z</time>
      </trkpt>
      <trkpt lat="44.14539" lon="6.31386">
        <ele>1011</ele>
        <time>2010-01-01T00:55:44Z</time>
      </trkpt>
      <trkpt lat="44.14519" lon="6.31377">
        <ele>1011</ele>
        <time>2010-01-01T00:55:52Z</time>
      </trkpt>
      <trkpt lat="44.14474" lon="6.31379">
        <ele>1015</ele>
        <time>2010-01-01T00:56:10Z</time>
      </trkpt>
      <trkpt lat="44.14441" lon="6.31391">
        <ele>1017</ele>
        <time>2010-01-01T00:56:24Z</time>
      </trkpt>
      <trkpt lat="44.14432" lon="6.31437">
        <ele>1029</ele>
        <time>2010-01-01T00:56:38Z</time>
      </trkpt>
      <trkpt lat="44.14462" lon="6.31481">
        <ele>1033</ele>
        <time>2010-01-01T00:56:55Z</time>
      </trkpt>
      <trkpt lat="44.14486" lon="6.31541">
        <ele>1036</ele>
        <time>2010-01-01T00:57:15Z</time>
      </trkpt>
      <trkpt lat="44.14501" lon="6.31557">
        <ele>1045</ele>
        <time>2010-01-01T00:57:23Z</time>
      </trkpt>
      <trkpt lat="44.1455" lon="6.31596">
        <ele>1044</ele>
        <time>2010-01-01T00:57:45Z</time>
      </trkpt>
      <trkpt lat="44.14612" lon="6.31638">
        <ele>1052</ele>
        <time>2010-01-01T00:58:13Z</time>
      </trkpt>
      <trkpt lat="44.14658" lon="6.31713">
        <ele>1050</ele>
        <time>2010-01-01T00:58:41Z</time>
      </trkpt>
      <trkpt lat="44.14688" lon="6.31771">
        <ele>1055</ele>
        <time>2010-01-01T00:59:02Z</time>
      </trkpt>
      <trkpt lat="44.14753" lon="6.3181">
        <ele>1061</ele>
        <time>2010-01-01T00:59:30Z</time>
      </trkpt>
      <trkpt lat="44.14806" lon="6.31829">
        <ele>1064</ele>
        <time>2010-01-01T00:59:52Z</time>
      </trkpt>
      <trkpt lat="44.1486" lon="6.31884">
        <ele>1059</ele>
        <time>2010-01-01T01:00:18Z</time>
      </trkpt>
      <trkpt lat="44.14934" lon="6.3194">
        <ele>1060</ele>
        <time>2010-01-01T01:00:52Z</time>
      </trkpt>
      <trkpt lat="44.14976" lon="6.31993">
        <ele>1063</ele>
        <time>2010-01-01T01:01:15Z</time>
      </trkpt>
      <trkpt lat="44.15064" lon="6.32063">
        <ele>1060</ele>
        <time>2010-01-01T01:01:55Z</time>
      </trkpt>
      <trkpt lat="44.1515" lon="6.32137">
        <ele>1055</ele>
        <time>2010-01-01T01:02:36Z</time>
      </trkpt>
      <trkpt lat="44.15185" lon="6.32184">
        <ele>1059</ele>
        <time>2010-01-01T01:02:55Z</time>
      </trkpt>
      <trkpt lat="44.15211" lon="6.32233">
        <ele>1060</ele>
        <time>2010-01-01T01:03:13Z</time>
      </trkpt>
      <trkpt lat="44.15217" lon="6.32271">
        <ele>1072</ele>
        <time>2010-01-01T01:03:24Z</time>
      </trkpt>
      <trkpt lat="44.15238" lon="6.32327">
        <ele>1081</ele>
        <time>2010-01-01T01:03:42Z</time>
      </trkpt>
      <trkpt lat="44.15256" lon="6.32355">
        <ele>1083</ele>
        <time>2010-01-01T01:03:53Z</time>
      </trkpt>
      <trkpt lat="44.1528" lon="6.32395">
        <ele>1082</ele>
        <time>2010-01-01T01:04:08Z</time>
      </trkpt>
      <trkpt lat="44.15297" lon="6.32428">
        <ele>1090</ele>
        <time>2010-01-01T01:04:20Z</time>
      </trkpt>
      <trkpt lat="44.15316" lon="6.32474">
        <ele>1094</ele>
        <time>2010-01-01T01:04:35Z</time>
      </trkpt>
      <trkpt lat="44.15339" lon="6.32514">
        <ele>1099</ele>
        <time>2010-01-01T01:04:49Z</time>
      </trkpt>
      <trkpt lat="44.15365" lon="6.32553">
        <ele>1096</ele>
        <time>2010-01-01T01:05:05Z</time>
      </trkpt>
      <trkpt lat="44.15377" lon="6.32796">
        <ele>1101</ele>
        <time>2010-01-01T01:06:15Z</time>
      </trkpt>
      <trkpt lat="44.15361" lon="6.32906">
        <ele>1099</ele>
        <time>2010-01-01T01:06:47Z</time>
      </trkpt>
      <trkpt lat="44.15362" lon="6.33028">
        <ele>1100</ele>
        <time>2010-01-01T01:07:22Z</time>
      </trkpt>
      <trkpt lat="44.15394" lon="6.33132">
        <ele>1107</ele>
        <time>2010-01-01T01:07:55Z</time>
      </trkpt>
      <trkpt lat="44.15394" lon="6.33135">
        <ele>1107</ele>
        <time>2010-01-01T01:07:56Z</time>
      </trkpt>
      <trkpt lat="44.1539" lon="6.33196">
        <ele>1116</ele>
        <time>2010-01-01T01:08:13Z</time>
      </trkpt>
      <trkpt lat="44.15405" lon="6.3324">
        <ele>1121</ele>
        <time>2010-01-01T01:08:27Z</time>
      </trkpt>
      <trkpt lat="44.15423" lon="6.3329">
        <ele>1130</ele>
        <time>2010-01-01T01:08:43Z</time>
      </trkpt>
      <trkpt lat="44.15429" lon="6.3333">
        <ele>1134</ele>
        <time>2010-01-01T01:08:55Z</time>
      </trkpt>
      <trkpt lat="44.15442" lon="6.33366">
        <ele>1139</ele>
        <time>2010-01-01T01:09:06Z</time>
      </trkpt>
      <trkpt lat="44.15455" lon="6.33398">
        <ele>1140</ele>
        <time>2010-01-01T01:09:17Z</time>
      </trkpt>
      <trkpt lat="44.15473" lon="6.33421">
        <ele>1140</ele>
        <time>2010-01-01T01:09:27Z</time>
      </trkpt>
      <trkpt lat="44.15451" lon="6.33433">
        <ele>1144</ele>
        <time>2010-01-01T01:09:36Z</time>
      </trkpt>
      <trkpt lat="44.15423" lon="6.33428">
        <ele>1149</ele>
        <time>2010-01-01T01:09:47Z</time>
      </trkpt>
      <trkpt lat="44.154" lon="6.3341">
        <ele>1155</ele>
        <time>2010-01-01T01:09:58Z</time>
      </trkpt>
      <trkpt lat="44.15391" lon="6.33407">
        <ele>1156</ele>
        <time>2010-01-01T01:10:02Z</time>
      </trkpt>
      <trkpt lat="44.15398" lon="6.33439">
        <ele>1164</ele>
        <time>2010-01-01T01:10:11Z</time>
      </trkpt>
      <trkpt lat="44.15402" lon="6.33478">
        <ele>1166</ele>
        <time>2010-01-01T01:10:23Z</time>
      </trkpt>
      <trkpt lat="44.15403" lon="6.33511">
        <ele>1165</ele>
        <time>2010-01-01T01:10:32Z</time>
      </trkpt>
      <trkpt lat="44.15399" lon="6.33557">
        <ele>1167</ele>
        <time>2010-01-01T01:10:45Z</time>
      </trkpt>
      <trkpt lat="44.15402" lon="6.33596">
        <ele>1167</ele>
        <time>2010-01-01T01:10:57Z</time>
      </trkpt>
      <trkpt lat="44.154" lon="6.33618">
        <ele>1168</ele>
        <time>2010-01-01T01:11:03Z</time>
      </trkpt>
      <trkpt lat="44.15403" lon="6.33639">
        <ele>1171</ele>
        <time>2010-01-01T01:11:09Z</time>
      </trkpt>
      <trkpt lat="44.15381" lon="6.3369">
        <ele>1180</ele>
        <time>2010-01-01T01:11:26Z</time>
      </trkpt>
      <trkpt lat="44.15321" lon="6.33815">
        <ele>1178</ele>
        <time>2010-01-01T01:12:09Z</time>
      </trkpt>
      <trkpt lat="44.15248" lon="6.33856">
        <ele>1161</ele>
        <time>2010-01-01T01:12:41Z</time>
      </trkpt>
      <trkpt lat="44.15189" lon="6.33864">
        <ele>1153</ele>
        <time>2010-01-01T01:13:05Z</time>
      </trkpt>
      <trkpt lat="44.15127" lon="6.3385">
        <ele>1135</ele>
        <time>2010-01-01T01:13:30Z</time>
      </trkpt>
      <trkpt lat="44.15085" lon="6.33837">
        <ele>1127</ele>
        <time>2010-01-01T01:13:47Z</time>
      </trkpt>
      <trkpt lat="44.1507" lon="6.33923">
        <ele>1113</ele>
        <time>2010-01-01T01:14:13Z</time>
      </trkpt>
      <trkpt lat="44.15118" lon="6.34026">
        <ele>1103</ele>
        <time>2010-01-01T01:14:48Z</time>
      </trkpt>
      <trkpt lat="44.15123" lon="6.34072">
        <ele>1100</ele>
        <time>2010-01-01T01:15:01Z</time>
      </trkpt>
      <trkpt lat="44.15073" lon="6.34122">
        <ele>1066</ele>
        <time>2010-01-01T01:15:26Z</time>
      </trkpt>
      <trkpt lat="44.15063" lon="6.34231">
        <ele>1061</ele>
        <time>2010-01-01T01:15:58Z</time>
      </trkpt>
      <trkpt lat="44.15043" lon="6.34338">
        <ele>1042</ele>
        <time>2010-01-01T01:16:29Z</time>
      </trkpt>
      <trkpt lat="44.14986" lon="6.34407">
        <ele>1023</ele>
        <time>2010-01-01T01:17:00Z</time>
      </trkpt>
      <trkpt lat="44.15012" lon="6.34409">
        <ele>1032</ele>
        <time>2010-01-01T01:17:10Z</time>
      </trkpt>
      <trkpt lat="44.1508" lon="6.34426">
        <ele>1027</ele>
        <time>2010-01-01T01:17:38Z</time>
      </trkpt>
      <trkpt lat="44.15109" lon="6.34505">
        <ele>1018</ele>
        <time>2010-01-01T01:18:03Z</time>
      </trkpt>
      <trkpt lat="44.1511" lon="6.34602">
        <ele>1010</ele>
        <time>2010-01-01T01:18:31Z</time>
      </trkpt>
      <trkpt lat="44.15066" lon="6.34677">
        <ele>986</ele>
        <time>2010-01-01T01:18:59Z</time>
      </trkpt>
      <trkpt lat="44.15017" lon="6.34768">
        <ele>970</ele>
        <time>2010-01-01T01:19:32Z</time>
      </trkpt>
      <trkpt lat="44.15016" lon="6.34824">
        <ele>967</ele>
        <time>2010-01-01T01:19:48Z</time>
      </trkpt>
      <trkpt lat="44.15013" lon="6.34844">
        <ele>958</ele>
        <time>2010-01-01T01:19:54Z</time>
      </trkpt>
      <trkpt lat="44.14976" lon="6.34855">
        <ele>945</ele>
        <time>2010-01-01T01:20:09Z</time>
      </trkpt>
      <trkpt lat="44.14947" lon="6.34806">
        <ele>947</ele>
        <time>2010-01-01T01:20:27Z</time>
      </trkpt>
      <trkpt lat="44.14959" lon="6.34901">
        <ele>938</ele>
        <time>2010-01-01T01:20:55Z</time>
      </trkpt>
      <trkpt lat="44.15013" lon="6.3495">
        <ele>937</ele>
        <time>2010-01-01T01:21:20Z</time>
      </trkpt>
      <trkpt lat="44.14962" lon="6.34973">
        <ele>925</ele>
        <time>2010-01-01T01:21:42Z</time>
      </trkpt>
      <trkpt lat="44.14923" lon="6.34983">
        <ele>919</ele>
        <time>2010-01-01T01:21:58Z</time>
      </trkpt>
      <trkpt lat="44.14904" lon="6.34983">
        <ele>911</ele>
        <time>2010-01-01T01:22:05Z</time>
      </trkpt>
      <trkpt lat="44.14837" lon="6.34989">
        <ele>901</ele>
        <time>2010-01-01T01:22:32Z</time>
      </trkpt>
      <trkpt lat="44.14762" lon="6.34989">
        <ele>888</ele>
        <time>2010-01-01T01:23:02Z</time>
      </trkpt>
      <trkpt lat="44.14702" lon="6.35063">
        <ele>874</ele>
        <time>2010-01-01T01:23:34Z</time>
      </trkpt>
      <trkpt lat="44.14741" lon="6.35105">
        <ele>875</ele>
        <time>2010-01-01T01:23:54Z</time>
      </trkpt>
      <trkpt lat="44.14716" lon="6.35032">
        <ele>876</ele>
        <time>2010-01-01T01:24:17Z</time>
      </trkpt>
      <trkpt lat="44.14744" lon="6.34975">
        <ele>882</ele>
        <time>2010-01-01T01:24:37Z</time>
      </trkpt>
      <trkpt lat="44.14661" lon="6.35003">
        <ele>869</ele>
        <time>2010-01-01T01:25:12Z</time>
      </trkpt>
      <trkpt lat="44.14631" lon="6.34955">
        <ele>864</ele>
        <time>2010-01-01T01:25:30Z</time>
      </trkpt>
      <trkpt lat="44.14601" lon="6.34882">
        <ele>866</ele>
        <time>2010-01-01T01:25:54Z</time>
      </trkpt>
      <trkpt lat="44.14586" lon="6.34839">
        <ele>865</ele>
        <time>2010-01-01T01:26:08Z</time>
      </trkpt>
      <trkpt lat="44.14498" lon="6.34805">
        <ele>849</ele>
        <time>2010-01-01T01:26:44Z</time>
      </trkpt>
      <trkpt lat="44.14454" lon="6.34794">
        <ele>847</ele>
        <time>2010-01-01T01:27:02Z</time>
      </trkpt>
      <trkpt lat="44.14486" lon="6.34805">
        <ele>849</ele>
        <time>2010-01-01T01:27:15Z</time>
      </trkpt>
      <trkpt lat="44.14461" lon="6.34794">
        <ele>848</ele>
        <time>2010-01-01T01:27:26Z</time>
      </trkpt>
      <trkpt lat="44.14452" lon="6.34763">
        <ele>849</ele>
        <time>2010-01-01T01:27:35Z</time>
      </trkpt>
      <trkpt lat="44.14381" lon="6.34691">
        <ele>845</ele>
        <time>2010-01-01T01:28:10Z</time>
      </trkpt>
      <trkpt lat="44.1437" lon="6.34607">
        <ele>841</ele>
        <time>2010-01-01T01:28:35Z</time>
      </trkpt>
      <trkpt lat="44.14373" lon="6.34548">
        <ele>843</ele>
        <time>2010-01-01T01:28:52Z</time>
      </trkpt>
      <trkpt lat="44.14355" lon="6.34555">
        <ele>841</ele>
        <time>2010-01-01T01:28:59Z</time>
      </trkpt>
      <trkpt lat="44.14311" lon="6.34506">
        <ele>837</ele>
        <time>2010-01-01T01:29:22Z</time>
      </trkpt>
      <trkpt lat="44.14224" lon="6.34443">
        <ele>827</ele>
        <time>2010-01-01T01:30:01Z</time>
      </trkpt>
      <trkpt lat="44.14168" lon="6.34415">
        <ele>822</ele>
        <time>2010-01-01T01:30:25Z</time>
      </trkpt>
      <trkpt lat="44.14108" lon="6.34396">
        <ele>821</ele>
        <time>2010-01-01T01:30:50Z</time>
      </trkpt>
      <trkpt lat="44.14075" lon="6.34335">
        <ele>817</ele>
        <time>2010-01-01T01:31:12Z</time>
      </trkpt>
      <trkpt lat="44.1403" lon="6.34271">
        <ele>813</ele>
        <time>2010-01-01T01:31:37Z</time>
      </trkpt>
      <trkpt lat="44.14004" lon="6.34232">
        <ele>812</ele>
        <time>2010-01-01T01:31:53Z</time>
      </trkpt>
      <trkpt lat="44.13963" lon="6.34263">
        <ele>813</ele>
        <time>2010-01-01T01:32:11Z</time>
      </trkpt>
      <trkpt lat="44.13941" lon="6.34288">
        <ele>814</ele>
        <time>2010-01-01T01:32:23Z</time>
      </trkpt>
      <trkpt lat="44.13915" lon="6.34296">
        <ele>824</ele>
        <time>2010-01-01T01:32:33Z</time>
      </trkpt>
      <trkpt lat="44.13886" lon="6.3429">
        <ele>826</ele>
        <time>2010-01-01T01:32:45Z</time>
      </trkpt>
      <trkpt lat="44.13861" lon="6.34284">
        <ele>828</ele>
        <time>2010-01-01T01:32:55Z</time>
      </trkpt>
      <trkpt lat="44.13837" lon="6.34286">
        <ele>829</ele>
        <time>2010-01-01T01:33:05Z</time>
      </trkpt>
      <trkpt lat="44.13796" lon="6.34285">
        <ele>839</ele>
        <time>2010-01-01T01:33:21Z</time>
      </trkpt>
      <trkpt lat="44.13765" lon="6.3428">
        <ele>841</ele>
        <time>2010-01-01T01:33:34Z</time>
      </trkpt>
      <trkpt lat="44.13741" lon="6.34266">
        <ele>847</ele>
        <time>2010-01-01T01:33:44Z</time>
      </trkpt>
      <trkpt lat="44.13709" lon="6.34255">
        <ele>848</ele>
        <time>2010-01-01T01:33:57Z</time>
      </trkpt>
      <trkpt lat="44.13686" lon="6.34259">
        <ele>849</ele>
        <time>2010-01-01T01:34:06Z</time>
      </trkpt>
      <trkpt lat="44.13664" lon="6.34271">
        <ele>852</ele>
        <time>2010-01-01T01:34:16Z</time>
      </trkpt>
      <trkpt lat="44.13632" lon="6.34291">
        <ele>854</ele>
        <time>2010-01-01T01:34:30Z</time>
      </trkpt>
      <trkpt lat="44.13597" lon="6.34334">
        <ele>858</ele>
        <time>2010-01-01T01:34:49Z</time>
      </trkpt>
      <trkpt lat="44.13547" lon="6.34324">
        <ele>861</ele>
        <time>2010-01-01T01:35:09Z</time>
      </trkpt>
      <trkpt lat="44.13523" lon="6.34303">
        <ele>862</ele>
        <time>2010-01-01T01:35:20Z</time>
      </trkpt>
      <trkpt lat="44.13512" lon="6.34299">
        <ele>863</ele>
        <time>2010-01-01T01:35:25Z</time>
      </trkpt>
      <trkpt lat="44.1349" lon="6.34283">
        <ele>867</ele>
        <time>2010-01-01T01:35:35Z</time>
      </trkpt>
      <trkpt lat="44.1345" lon="6.34286">
        <ele>867</ele>
        <time>2010-01-01T01:35:51Z</time>
      </trkpt>
      <trkpt lat="44.13447" lon="6.34293">
        <ele>867</ele>
        <time>2010-01-01T01:35:53Z</time>
      </trkpt>
      <trkpt lat="44.13449" lon="6.34291">
        <ele>867</ele>
        <time>2010-01-01T01:35:54Z</time>
      </trkpt>
      <trkpt lat="44.13449" lon="6.34255">
        <ele>866</ele>
        <time>2010-01-01T01:36:05Z</time>
      </trkpt>
      <trkpt lat="44.13364" lon="6.34206">
        <ele>864</ele>
        <time>2010-01-01T01:36:41Z</time>
      </trkpt>
      <trkpt lat="44.13335" lon="6.34156">
        <ele>865</ele>
        <time>2010-01-01T01:37:00Z</time>
      </trkpt>
      <trkpt lat="44.13305" lon="6.34155">
        <ele>872</ele>
        <time>2010-01-01T01:37:12Z</time>
      </trkpt>
      <trkpt lat="44.13285" lon="6.34154">
        <ele>874</ele>
        <time>2010-01-01T01:37:20Z</time>
      </trkpt>
      <trkpt lat="44.13274" lon="6.34155">
        <ele>874</ele>
        <time>2010-01-01T01:37:24Z</time>
      </trkpt>
      <trkpt lat="44.13262" lon="6.34134">
        <ele>876</ele>
        <time>2010-01-01T01:37:32Z</time>
      </trkpt>
      <trkpt lat="44.13262" lon="6.34109">
        <ele>879</ele>
        <time>2010-01-01T01:37:39Z</time>
      </trkpt>
      <trkpt lat="44.13265" lon="6.34067">
        <ele>890</ele>
        <time>2010-01-01T01:37:51Z</time>
      </trkpt>
      <trkpt lat="44.13268" lon="6.34034">
        <ele>895</ele>
        <time>2010-01-01T01:38:01Z</time>
      </trkpt>
      <trkpt lat="44.13281" lon="6.33999">
        <ele>910</ele>
        <time>2010-01-01T01:38:13Z</time>
      </trkpt>
      <trkpt lat="44.13291" lon="6.33979">
        <ele>910</ele>
        <time>2010-01-01T01:38:20Z</time>
      </trkpt>
      <trkpt lat="44.13303" lon="6.33959">
        <ele>911</ele>
        <time>2010-01-01T01:38:27Z</time>
      </trkpt>
      <trkpt lat="44.1331" lon="6.33942">
        <ele>912</ele>
        <time>2010-01-01T01:38:33Z</time>
      </trkpt>
      <trkpt lat="44.13323" lon="6.33926">
        <ele>913</ele>
        <time>2010-01-01T01:38:40Z</time>
      </trkpt>
      <trkpt lat="44.1335" lon="6.33897">
        <ele>916</ele>
        <time>2010-01-01T01:38:53Z</time>
      </trkpt>
      <trkpt lat="44.13355" lon="6.33875">
        <ele>920</ele>
        <time>2010-01-01T01:39:00Z</time>
      </trkpt>
      <trkpt lat="44.13368" lon="6.33853">
        <ele>922</ele>
        <time>2010-01-01T01:39:08Z</time>
      </trkpt>
      <trkpt lat="44.13376" lon="6.3384">
        <ele>922</ele>
        <time>2010-01-01T01:39:13Z</time>
      </trkpt>
      <trkpt lat="44.1339" lon="6.33825">
        <ele>933</ele>
        <time>2010-01-01T01:39:20Z</time>
      </trkpt>
      <trkpt lat="44.13405" lon="6.3381">
        <ele>932</ele>
        <time>2010-01-01T01:39:28Z</time>
      </trkpt>
      <trkpt lat="44.13414" lon="6.33786">
        <ele>936</ele>
        <time>2010-01-01T01:39:35Z</time>
      </trkpt>
      <trkpt lat="44.13414" lon="6.33774">
        <ele>937</ele>
        <time>2010-01-01T01:39:39Z</time>
      </trkpt>
      <trkpt lat="44.1341" lon="6.33711">
        <ele>940</ele>
        <time>2010-01-01T01:39:57Z</time>
      </trkpt>
      <trkpt lat="44.13382" lon="6.33689">
        <ele>941</ele>
        <time>2010-01-01T01:40:10Z</time>
      </trkpt>
      <trkpt lat="44.13339" lon="6.33687">
        <ele>942</ele>
        <time>2010-01-01T01:40:27Z</time>
      </trkpt>
      <trkpt lat="44.13294" lon="6.33683">
        <ele>950</ele>
        <time>2010-01-01T01:40:45Z</time>
      </trkpt>
      <trkpt lat="44.13242" lon="6.33694">
        <ele>958</ele>
        <time>2010-01-01T01:41:06Z</time>
      </trkpt>
      <trkpt lat="44.13201" lon="6.33699">
        <ele>961</ele>
        <time>2010-01-01T01:41:22Z</time>
      </trkpt>
      <trkpt lat="44.13159" lon="6.33674">
        <ele>965</ele>
        <time>2010-01-01T01:41:41Z</time>
      </trkpt>
      <trkpt lat="44.13119" lon="6.33644">
        <ele>966</ele>
        <time>2010-01-01T01:41:59Z</time>
      </trkpt>
      <trkpt lat="44.13047" lon="6.33627">
        <ele>972</ele>
        <time>2010-01-01T01:42:28Z</time>
      </trkpt>
      <trkpt lat="44.13017" lon="6.33609">
        <ele>972</ele>
        <time>2010-01-01T01:42:41Z</time>
      </trkpt>
      <trkpt lat="44.12954" lon="6.33656">
        <ele>974</ele>
        <time>2010-01-01T01:43:10Z</time>
      </trkpt>
      <trkpt lat="44.12868" lon="6.33606">
        <ele>959</ele>
        <time>2010-01-01T01:43:47Z</time>
      </trkpt>
      <trkpt lat="44.12692" lon="6.3362">
        <ele>949</ele>
        <time>2010-01-01T01:44:58Z</time>
      </trkpt>
      <trkpt lat="44.12654" lon="6.33645">
        <ele>961</ele>
        <time>2010-01-01T01:45:14Z</time>
      </trkpt>
      <trkpt lat="44.12665" lon="6.33676">
        <ele>966</ele>
        <time>2010-01-01T01:45:24Z</time>
      </trkpt>
      <trkpt lat="44.12657" lon="6.33692">
        <ele>972</ele>
        <time>2010-01-01T01:45:30Z</time>
      </trkpt>
      <trkpt lat="44.127" lon="6.33704">
        <ele>963</ele>
        <time>2010-01-01T01:45:47Z</time>
      </trkpt>
      <trkpt lat="44.12673" lon="6.33732">
        <ele>967</ele>
        <time>2010-01-01T01:46:01Z</time>
      </trkpt>
      <trkpt lat="44.12698" lon="6.33691">
        <ele>962</ele>
        <time>2010-01-01T01:46:16Z</time>
      </trkpt>
      <trkpt lat="44.1266" lon="6.33649">
        <ele>961</ele>
        <time>2010-01-01T01:46:35Z</time>
      </trkpt>
      <trkpt lat="44.12634" lon="6.33614">
        <ele>960</ele>
        <time>2010-01-01T01:46:50Z</time>
      </trkpt>
      <trkpt lat="44.12525" lon="6.33563">
        <ele>962</ele>
        <time>2010-01-01T01:47:36Z</time>
      </trkpt>
      <trkpt lat="44.12502" lon="6.33543">
        <ele>962</ele>
        <time>2010-01-01T01:47:46Z</time>
      </trkpt>
      <trkpt lat="44.12462" lon="6.33475">
        <ele>965</ele>
        <time>2010-01-01T01:48:12Z</time>
      </trkpt>
      <trkpt lat="44.12435" lon="6.33439">
        <ele>964</ele>
        <time>2010-01-01T01:48:27Z</time>
      </trkpt>
      <trkpt lat="44.12362" lon="6.33407">
        <ele>955</ele>
        <time>2010-01-01T01:48:57Z</time>
      </trkpt>
      <trkpt lat="44.1221" lon="6.33412">
        <ele>952</ele>
        <time>2010-01-01T01:49:58Z</time>
      </trkpt>
      <trkpt lat="44.12152" lon="6.33399">
        <ele>951</ele>
        <time>2010-01-01T01:50:22Z</time>
      </trkpt>
      <trkpt lat="44.12117" lon="6.33398">
        <ele>947</ele>
        <time>2010-01-01T01:50:36Z</time>
      </trkpt>
      <trkpt lat="44.1208" lon="6.33426">
        <ele>947</ele>
        <time>2010-01-01T01:50:53Z</time>
      </trkpt>
      <trkpt lat="44.12029" lon="6.33421">
        <ele>945</ele>
        <time>2010-01-01T01:51:13Z</time>
      </trkpt>
      <trkpt lat="44.11943" lon="6.33363">
        <ele>941</ele>
        <time>2010-01-01T01:51:51Z</time>
      </trkpt>
      <trkpt lat="44.11917" lon="6.33345">
        <ele>942</ele>
        <time>2010-01-01T01:52:03Z</time>
      </trkpt>
      <trkpt lat="44.11881" lon="6.3333">
        <ele>945</ele>
        <time>2010-01-01T01:52:18Z</time>
      </trkpt>
      <trkpt lat="44.11845" lon="6.33321">
        <ele>948</ele>
        <time>2010-01-01T01:52:32Z</time>
      </trkpt>
      <trkpt lat="44.11807" lon="6.33335">
        <ele>956</ele>
        <time>2010-01-01T01:52:48Z</time>
      </trkpt>
      <trkpt lat="44.11775" lon="6.33336">
        <ele>959</ele>
        <time>2010-01-01T01:53:01Z</time>
      </trkpt>
      <trkpt lat="44.11775" lon="6.33339">
        <ele>959</ele>
        <time>2010-01-01T01:53:02Z</time>
      </trkpt>
      <trkpt lat="44.11729" lon="6.33335">
        <ele>967</ele>
        <time>2010-01-01T01:53:20Z</time>
      </trkpt>
      <trkpt lat="44.11709" lon="6.33333">
        <ele>969</ele>
        <time>2010-01-01T01:53:28Z</time>
      </trkpt>
      <trkpt lat="44.1168" lon="6.33328">
        <ele>968</ele>
        <time>2010-01-01T01:53:40Z</time>
      </trkpt>
      <trkpt lat="44.11648" lon="6.33306">
        <ele>974</ele>
        <time>2010-01-01T01:53:54Z</time>
      </trkpt>
      <trkpt lat="44.11641" lon="6.33276">
        <ele>974</ele>
        <time>2010-01-01T01:54:03Z</time>
      </trkpt>
      <trkpt lat="44.11617" lon="6.3329">
        <ele>976</ele>
        <time>2010-01-01T01:54:14Z</time>
      </trkpt>
      <trkpt lat="44.11596" lon="6.33297">
        <ele>977</ele>
        <time>2010-01-01T01:54:22Z</time>
      </trkpt>
      <trkpt lat="44.1157" lon="6.33291">
        <ele>986</ele>
        <time>2010-01-01T01:54:32Z</time>
      </trkpt>
      <trkpt lat="44.1154" lon="6.33288">
        <ele>988</ele>
        <time>2010-01-01T01:54:45Z</time>
      </trkpt>
      <trkpt lat="44.11526" lon="6.33266">
        <ele>990</ele>
        <time>2010-01-01T01:54:53Z</time>
      </trkpt>
      <trkpt lat="44.11503" lon="6.33225">
        <ele>990</ele>
        <time>2010-01-01T01:55:08Z</time>
      </trkpt>
      <trkpt lat="44.11473" lon="6.33198">
        <ele>999</ele>
        <time>2010-01-01T01:55:22Z</time>
      </trkpt>
      <trkpt lat="44.11434" lon="6.33117">
        <ele>997</ele>
        <time>2010-01-01T01:55:50Z</time>
      </trkpt>
      <trkpt lat="44.11369" lon="6.33043">
        <ele>1002</ele>
        <time>2010-01-01T01:56:24Z</time>
      </trkpt>
      <trkpt lat="44.1134" lon="6.33029">
        <ele>1002</ele>
        <time>2010-01-01T01:56:36Z</time>
      </trkpt>
      <trkpt lat="44.11234" lon="6.33006">
        <ele>1013</ele>
        <time>2010-01-01T01:57:19Z</time>
      </trkpt>
      <trkpt lat="44.11195" lon="6.32965">
        <ele>1013</ele>
        <time>2010-01-01T01:57:39Z</time>
      </trkpt>
      <trkpt lat="44.11199" lon="6.3283">
        <ele>1006</ele>
        <time>2010-01-01T01:58:17Z</time>
      </trkpt>
      <trkpt lat="44.11141" lon="6.32751">
        <ele>1015</ele>
        <time>2010-01-01T01:58:50Z</time>
      </trkpt>
      <trkpt lat="44.11156" lon="6.32728">
        <ele>1013</ele>
        <time>2010-01-01T01:58:59Z</time>
      </trkpt>
      <trkpt lat="44.11139" lon="6.32736">
        <ele>1015</ele>
        <time>2010-01-01T01:59:06Z</time>
      </trkpt>
      <trkpt lat="44.11126" lon="6.32743">
        <ele>1017</ele>
        <time>2010-01-01T01:59:12Z</time>
      </trkpt>
      <trkpt lat="44.11122" lon="6.32741">
        <ele>1017</ele>
        <time>2010-01-01T01:59:13Z</time>
      </trkpt>
      <trkpt lat="44.11122" lon="6.32735">
        <ele>1017</ele>
        <time>2010-01-01T01:59:15Z</time>
      </trkpt>
      <trkpt lat="44.11123" lon="6.32728">
        <ele>1017</ele>
        <time>2010-01-01T01:59:17Z</time>
      </trkpt>
      <trkpt lat="44.11127" lon="6.32681">
        <ele>1017</ele>
        <time>2010-01-01T01:59:31Z</time>
      </trkpt>
      <trkpt lat="44.11139" lon="6.32635">
        <ele>1023</ele>
        <time>2010-01-01T01:59:45Z</time>
      </trkpt>
      <trkpt lat="44.11151" lon="6.32589">
        <ele>1026</ele>
        <time>2010-01-01T01:59:59Z</time>
      </trkpt>
      <trkpt lat="44.11141" lon="6.32541">
        <ele>1040</ele>
        <time>2010-01-01T02:00:13Z</time>
      </trkpt>
      <trkpt lat="44.11144" lon="6.32508">
        <ele>1044</ele>
        <time>2010-01-01T02:00:23Z</time>
      </trkpt>
      <trkpt lat="44.11164" lon="6.32481">
        <ele>1055</ele>
        <time>2010-01-01T02:00:34Z</time>
      </trkpt>
      <trkpt lat="44.11159" lon="6.32456">
        <ele>1060</ele>
        <time>2010-01-01T02:00:41Z</time>
      </trkpt>
      <trkpt lat="44.1117" lon="6.32439">
        <ele>1059</ele>
        <time>2010-01-01T02:00:48Z</time>
      </trkpt>
      <trkpt lat="44.11175" lon="6.32436">
        <ele>1060</ele>
        <time>2010-01-01T02:00:50Z</time>
      </trkpt>
      <trkpt lat="44.11176" lon="6.3239">
        <ele>1069</ele>
        <time>2010-01-01T02:01:03Z</time>
      </trkpt>
      <trkpt lat="44.11198" lon="6.3239">
        <ele>1070</ele>
        <time>2010-01-01T02:01:12Z</time>
      </trkpt>
      <trkpt lat="44.11211" lon="6.32424">
        <ele>1058</ele>
        <time>2010-01-01T02:01:23Z</time>
      </trkpt>
      <trkpt lat="44.11217" lon="6.32442">
        <ele>1056</ele>
        <time>2010-01-01T02:01:28Z</time>
      </trkpt>
      <trkpt lat="44.11273" lon="6.32436">
        <ele>1050</ele>
        <time>2010-01-01T02:01:51Z</time>
      </trkpt>
      <trkpt lat="44.11353" lon="6.32357">
        <ele>1064</ele>
        <time>2010-01-01T02:02:30Z</time>
      </trkpt>
      <trkpt lat="44.11379" lon="6.32317">
        <ele>1070</ele>
        <time>2010-01-01T02:02:45Z</time>
      </trkpt>
      <trkpt lat="44.11387" lon="6.32305">
        <ele>1069</ele>
        <time>2010-01-01T02:02:50Z</time>
      </trkpt>
      <trkpt lat="44.11389" lon="6.32309">
        <ele>1069</ele>
        <time>2010-01-01T02:02:52Z</time>
      </trkpt>
      <trkpt lat="44.11385" lon="6.32364">
        <ele>1061</ele>
        <time>2010-01-01T02:03:07Z</time>
      </trkpt>
      <trkpt lat="44.1142" lon="6.32408">
        <ele>1049</ele>
        <time>2010-01-01T02:03:26Z</time>
      </trkpt>
      <trkpt lat="44.11476" lon="6.32451">
        <ele>1031</ele>
        <time>2010-01-01T02:03:52Z</time>
      </trkpt>
      <trkpt lat="44.11508" lon="6.32458">
        <ele>1019</ele>
        <time>2010-01-01T02:04:05Z</time>
      </trkpt>
      <trkpt lat="44.11531" lon="6.32448">
        <ele>1018</ele>
        <time>2010-01-01T02:04:15Z</time>
      </trkpt>
      <trkpt lat="44.11553" lon="6.32436">
        <ele>1016</ele>
        <time>2010-01-01T02:04:24Z</time>
      </trkpt>
      <trkpt lat="44.11589" lon="6.3243">
        <ele>1008</ele>
        <time>2010-01-01T02:04:39Z</time>
      </trkpt>
      <trkpt lat="44.11649" lon="6.32404">
        <ele>1010</ele>
        <time>2010-01-01T02:05:04Z</time>
      </trkpt>
      <trkpt lat="44.11691" lon="6.32351">
        <ele>1002</ele>
        <time>2010-01-01T02:05:26Z</time>
      </trkpt>
      <trkpt lat="44.11771" lon="6.32326">
        <ele>993</ele>
        <time>2010-01-01T02:05:59Z</time>
      </trkpt>
      <trkpt lat="44.11783" lon="6.32313">
        <ele>992</ele>
        <time>2010-01-01T02:06:05Z</time>
      </trkpt>
      <trkpt lat="44.11773" lon="6.32276">
        <ele>994</ele>
        <time>2010-01-01T02:06:17Z</time>
      </trkpt>
      <trkpt lat="44.11844" lon="6.32236">
        <ele>989</ele>
        <time>2010-01-01T02:06:47Z</time>
      </trkpt>
      <trkpt lat="44.11868" lon="6.32215">
        <ele>985</ele>
        <time>2010-01-01T02:06:59Z</time>
      </trkpt>
      <trkpt lat="44.1187" lon="6.32148">
        <ele>988</ele>
        <time>2010-01-01T02:07:18Z</time>
      </trkpt>
      <trkpt lat="44.11894" lon="6.32138">
        <ele>985</ele>
        <time>2010-01-01T02:07:28Z</time>
      </trkpt>
      <trkpt lat="44.11944" lon="6.32117">
        <ele>974</ele>
        <time>2010-01-01T02:07:49Z</time>
      </trkpt>
      <trkpt lat="44.12001" lon="6.32106">
        <ele>963</ele>
        <time>2010-01-01T02:08:12Z</time>
      </trkpt>
      <trkpt lat="44.12041" lon="6.3215">
        <ele>959</ele>
        <time>2010-01-01T02:08:33Z</time>
      </trkpt>
      <trkpt lat="44.12104" lon="6.32186">
        <ele>950</ele>
        <time>2010-01-01T02:09:00Z</time>
      </trkpt>
      <trkpt lat="44.12163" lon="6.32189">
        <ele>953</ele>
        <time>2010-01-01T02:09:24Z</time>
      </trkpt>
      <trkpt lat="44.12118" lon="6.32064">
        <ele>954</ele>
        <time>2010-01-01T02:10:04Z</time>
      </trkpt>
      <trkpt lat="44.12091" lon="6.31991">
        <ele>950</ele>
        <time>2010-01-01T02:10:27Z</time>
      </trkpt>
      <trkpt lat="44.12054" lon="6.31928">
        <ele>950</ele>
        <time>2010-01-01T02:10:51Z</time>
      </trkpt>
      <trkpt lat="44.12006" lon="6.31874">
        <ele>945</ele>
        <time>2010-01-01T02:11:15Z</time>
      </trkpt>
      <trkpt lat="44.11979" lon="6.31804">
        <ele>949</ele>
        <time>2010-01-01T02:11:39Z</time>
      </trkpt>
      <trkpt lat="44.11955" lon="6.31759">
        <ele>949</ele>
        <time>2010-01-01T02:11:55Z</time>
      </trkpt>
      <trkpt lat="44.11914" lon="6.31739">
        <ele>948</ele>
        <time>2010-01-01T02:12:12Z</time>
      </trkpt>
      <trkpt lat="44.11898" lon="6.31683">
        <ele>948</ele>
        <time>2010-01-01T02:12:29Z</time>
      </trkpt>
      <trkpt lat="44.11884" lon="6.31661">
        <ele>948</ele>
        <time>2010-01-01T02:12:38Z</time>
      </trkpt>
      <trkpt lat="44.1188" lon="6.31654">
        <ele>949</ele>
        <time>2010-01-01T02:12:40Z</time>
      </trkpt>
      <trkpt lat="44.11839" lon="6.31595">
        <ele>957</ele>
        <time>2010-01-01T02:13:04Z</time>
      </trkpt>
      <trkpt lat="44.11815" lon="6.31517">
        <ele>960</ele>
        <time>2010-01-01T02:13:28Z</time>
      </trkpt>
      <trkpt lat="44.11768" lon="6.31396">
        <ele>954</ele>
        <time>2010-01-01T02:14:08Z</time>
      </trkpt>
      <trkpt lat="44.11771" lon="6.31313">
        <ele>954</ele>
        <time>2010-01-01T02:14:32Z</time>
      </trkpt>
      <trkpt lat="44.11778" lon="6.31261">
        <ele>955</ele>
        <time>2010-01-01T02:14:47Z</time>
      </trkpt>
      <trkpt lat="44.11817" lon="6.31234">
        <ele>962</ele>
        <time>2010-01-01T02:15:04Z</time>
      </trkpt>
      <trkpt lat="44.11806" lon="6.31183">
        <ele>966</ele>
        <time>2010-01-01T02:15:19Z</time>
      </trkpt>
      <trkpt lat="44.11794" lon="6.31149">
        <ele>973</ele>
        <time>2010-01-01T02:15:30Z</time>
      </trkpt>
      <trkpt lat="44.11774" lon="6.31125">
        <ele>973</ele>
        <time>2010-01-01T02:15:41Z</time>
      </trkpt>
      <trkpt lat="44.11761" lon="6.31089">
        <ele>975</ele>
        <time>2010-01-01T02:15:52Z</time>
      </trkpt>
      <trkpt lat="44.11753" lon="6.31061">
        <ele>982</ele>
        <time>2010-01-01T02:16:01Z</time>
      </trkpt>
      <trkpt lat="44.11744" lon="6.31023">
        <ele>978</ele>
        <time>2010-01-01T02:16:13Z</time>
      </trkpt>
      <trkpt lat="44.11752" lon="6.30974">
        <ele>994</ele>
        <time>2010-01-01T02:16:27Z</time>
      </trkpt>
      <trkpt lat="44.11748" lon="6.30944">
        <ele>987</ele>
        <time>2010-01-01T02:16:36Z</time>
      </trkpt>
      <trkpt lat="44.11735" lon="6.30906">
        <ele>993</ele>
        <time>2010-01-01T02:16:48Z</time>
      </trkpt>
      <trkpt lat="44.11728" lon="6.3087">
        <ele>993</ele>
        <time>2010-01-01T02:16:58Z</time>
      </trkpt>
      <trkpt lat="44.11749" lon="6.3083">
        <ele>1003</ele>
        <time>2010-01-01T02:17:13Z</time>
      </trkpt>
      <trkpt lat="44.1177" lon="6.30816">
        <ele>1012</ele>
        <time>2010-01-01T02:17:22Z</time>
      </trkpt>
      <trkpt lat="44.11791" lon="6.30801">
        <ele>1016</ele>
        <time>2010-01-01T02:17:31Z</time>
      </trkpt>
      <trkpt lat="44.11786" lon="6.30776">
        <ele>1017</ele>
        <time>2010-01-01T02:17:39Z</time>
      </trkpt>
      <trkpt lat="44.1178" lon="6.30725">
        <ele>1024</ele>
        <time>2010-01-01T02:17:54Z</time>
      </trkpt>
      <trkpt lat="44.11782" lon="6.30691">
        <ele>1027</ele>
        <time>2010-01-01T02:18:04Z</time>
      </trkpt>
      <trkpt lat="44.11764" lon="6.30665">
        <ele>1032</ele>
        <time>2010-01-01T02:18:14Z</time>
      </trkpt>
      <trkpt lat="44.11734" lon="6.3066">
        <ele>1025</ele>
        <time>2010-01-01T02:18:26Z</time>
      </trkpt>
      <trkpt lat="44.11724" lon="6.30637">
        <ele>1024</ele>
        <time>2010-01-01T02:18:34Z</time>
      </trkpt>
      <trkpt lat="44.11715" lon="6.30593">
        <ele>1027</ele>
        <time>2010-01-01T02:18:47Z</time>
      </trkpt>
      <trkpt lat="44.11718" lon="6.3056">
        <ele>1037</ele>
        <time>2010-01-01T02:18:56Z</time>
      </trkpt>
      <trkpt lat="44.11715" lon="6.3052">
        <ele>1041</ele>
        <time>2010-01-01T02:19:08Z</time>
      </trkpt>
      <trkpt lat="44.11693" lon="6.30493">
        <ele>1048</ele>
        <time>2010-01-01T02:19:19Z</time>
      </trkpt>
      <trkpt lat="44.11663" lon="6.30468">
        <ele>1038</ele>
        <time>2010-01-01T02:19:34Z</time>
      </trkpt>
      <trkpt lat="44.11679" lon="6.30461">
        <ele>1050</ele>
        <time>2010-01-01T02:19:40Z</time>
      </trkpt>
      <trkpt lat="44.11695" lon="6.30443">
        <ele>1052</ele>
        <time>2010-01-01T02:19:49Z</time>
      </trkpt>
      <trkpt lat="44.11713" lon="6.30431">
        <ele>1055</ele>
        <time>2010-01-01T02:19:57Z</time>
      </trkpt>
      <trkpt lat="44.11726" lon="6.30415">
        <ele>1063</ele>
        <time>2010-01-01T02:20:03Z</time>
      </trkpt>
      <trkpt lat="44.11738" lon="6.30398">
        <ele>1064</ele>
        <time>2010-01-01T02:20:10Z</time>
      </trkpt>
      <trkpt lat="44.11748" lon="6.30385">
        <ele>1064</ele>
        <time>2010-01-01T02:20:16Z</time>
      </trkpt>
      <trkpt lat="44.11762" lon="6.30378">
        <ele>1072</ele>
        <time>2010-01-01T02:20:22Z</time>
      </trkpt>
      <trkpt lat="44.11787" lon="6.30387">
        <ele>1072</ele>
        <time>2010-01-01T02:20:32Z</time>
      </trkpt>
      <trkpt lat="44.11829" lon="6.3041">
        <ele>1076</ele>
        <time>2010-01-01T02:20:50Z</time>
      </trkpt>
      <trkpt lat="44.11862" lon="6.3043">
        <ele>1077</ele>
        <time>2010-01-01T02:21:05Z</time>
      </trkpt>
      <trkpt lat="44.11911" lon="6.30457">
        <ele>1078</ele>
        <time>2010-01-01T02:21:26Z</time>
      </trkpt>
      <trkpt lat="44.11933" lon="6.30461">
        <ele>1083</ele>
        <time>2010-01-01T02:21:35Z</time>
      </trkpt>
      <trkpt lat="44.11962" lon="6.30466">
        <ele>1084</ele>
        <time>2010-01-01T02:21:46Z</time>
      </trkpt>
      <trkpt lat="44.11998" lon="6.3043">
        <ele>1087</ele>
        <time>2010-01-01T02:22:04Z</time>
      </trkpt>
      <trkpt lat="44.12001" lon="6.30421">
        <ele>1088</ele>
        <time>2010-01-01T02:22:07Z</time>
      </trkpt>
      <trkpt lat="44.12003" lon="6.30417">
        <ele>1088</ele>
        <time>2010-01-01T02:22:08Z</time>
      </trkpt>
      <trkpt lat="44.11994" lon="6.30351">
        <ele>1080</ele>
        <time>2010-01-01T02:22:28Z</time>
      </trkpt>
      <trkpt lat="44.12004" lon="6.30268">
        <ele>1071</ele>
        <time>2010-01-01T02:22:52Z</time>
      </trkpt>
      <trkpt lat="44.11995" lon="6.30205">
        <ele>1071</ele>
        <time>2010-01-01T02:23:11Z</time>
      </trkpt>
      <trkpt lat="44.1195" lon="6.30022">
        <ele>1079</ele>
        <time>2010-01-01T02:24:06Z</time>
      </trkpt>
      <trkpt lat="44.11969" lon="6.29919">
        <ele>1074</ele>
        <time>2010-01-01T02:24:37Z</time>
      </trkpt>
      <trkpt lat="44.11991" lon="6.29809">
        <ele>1058</ele>
        <time>2010-01-01T02:25:09Z</time>
      </trkpt>
      <trkpt lat="44.11977" lon="6.29713">
        <ele>1050</ele>
        <time>2010-01-01T02:25:38Z</time>
      </trkpt>
      <trkpt lat="44.11975" lon="6.2964">
        <ele>1036</ele>
        <time>2010-01-01T02:25:59Z</time>
      </trkpt>
      <trkpt lat="44.11959" lon="6.29584">
        <ele>1031</ele>
        <time>2010-01-01T02:26:16Z</time>
      </trkpt>
      <trkpt lat="44.11945" lon="6.29555">
        <ele>1015</ele>
        <time>2010-01-01T02:26:26Z</time>
      </trkpt>
      <trkpt lat="44.11925" lon="6.29473">
        <ele>994</ele>
        <time>2010-01-01T02:26:51Z</time>
      </trkpt>
      <trkpt lat="44.11921" lon="6.29451">
        <ele>989</ele>
        <time>2010-01-01T02:26:57Z</time>
      </trkpt>
      <trkpt lat="44.119" lon="6.29432">
        <ele>978</ele>
        <time>2010-01-01T02:27:07Z</time>
      </trkpt>
      <trkpt lat="44.11922" lon="6.29412">
        <ele>979</ele>
        <time>2010-01-01T02:27:17Z</time>
      </trkpt>
      <trkpt lat="44.11915" lon="6.29386">
        <ele>961</ele>
        <time>2010-01-01T02:27:25Z</time>
      </trkpt>
      <trkpt lat="44.11924" lon="6.2937">
        <ele>959</ele>
        <time>2010-01-01T02:27:31Z</time>
      </trkpt>
      <trkpt lat="44.11942" lon="6.29356">
        <ele>955</ele>
        <time>2010-01-01T02:27:40Z</time>
      </trkpt>
      <trkpt lat="44.11945" lon="6.293">
        <ele>930</ele>
        <time>2010-01-01T02:27:56Z</time>
      </trkpt>
      <trkpt lat="44.11913" lon="6.29296">
        <ele>929</ele>
        <time>2010-01-01T02:28:08Z</time>
      </trkpt>
      <trkpt lat="44.11855" lon="6.29236">
        <ele>902</ele>
        <time>2010-01-01T02:28:37Z</time>
      </trkpt>
      <trkpt lat="44.11803" lon="6.2918">
        <ele>887</ele>
        <time>2010-01-01T02:29:04Z</time>
      </trkpt>
      <trkpt lat="44.11748" lon="6.29117">
        <ele>868</ele>
        <time>2010-01-01T02:29:32Z</time>
      </trkpt>
      <trkpt lat="44.11676" lon="6.29055">
        <ele>861</ele>
        <time>2010-01-01T02:30:06Z</time>
      </trkpt>
      <trkpt lat="44.11646" lon="6.28985">
        <ele>854</ele>
        <time>2010-01-01T02:30:30Z</time>
      </trkpt>
      <trkpt lat="44.11607" lon="6.28871">
        <ele>848</ele>
        <time>2010-01-01T02:31:06Z</time>
      </trkpt>
      <trkpt lat="44.11597" lon="6.2875">
        <ele>851</ele>
        <time>2010-01-01T02:31:41Z</time>
      </trkpt>
      <trkpt lat="44.11582" lon="6.28684">
        <ele>860</ele>
        <time>2010-01-01T02:32:01Z</time>
      </trkpt>
      <trkpt lat="44.11527" lon="6.28611">
        <ele>858</ele>
        <time>2010-01-01T02:32:31Z</time>
      </trkpt>
      <trkpt lat="44.11477" lon="6.28557">
        <ele>847</ele>
        <time>2010-01-01T02:32:57Z</time>
      </trkpt>
      <trkpt lat="44.11424" lon="6.28509">
        <ele>844</ele>
        <time>2010-01-01T02:33:22Z</time>
      </trkpt>
      <trkpt lat="44.11359" lon="6.28444">
        <ele>836</ele>
        <time>2010-01-01T02:33:54Z</time>
      </trkpt>
      <trkpt lat="44.11289" lon="6.2842">
        <ele>835</ele>
        <time>2010-01-01T02:34:22Z</time>
      </trkpt>
      <trkpt lat="44.11241" lon="6.28387">
        <ele>824</ele>
        <time>2010-01-01T02:34:44Z</time>
      </trkpt>
      <trkpt lat="44.11182" lon="6.28369">
        <ele>821</ele>
        <time>2010-01-01T02:35:08Z</time>
      </trkpt>
      <trkpt lat="44.11124" lon="6.28341">
        <ele>821</ele>
        <time>2010-01-01T02:35:33Z</time>
      </trkpt>
      <trkpt lat="44.11123" lon="6.28324">
        <ele>820</ele>
        <time>2010-01-01T02:35:38Z</time>
      </trkpt>
      <trkpt lat="44.111" lon="6.2831">
        <ele>822</ele>
        <time>2010-01-01T02:35:48Z</time>
      </trkpt>
      <trkpt lat="44.11018" lon="6.28265">
        <ele>822</ele>
        <time>2010-01-01T02:36:23Z</time>
      </trkpt>
      <trkpt lat="44.11018" lon="6.28265">
        <ele>822</ele>
        <time>2010-01-01T02:36:23Z</time>
      </trkpt>
      <trkpt lat="44.11017" lon="6.28265">
        <ele>822</ele>
        <time>2010-01-01T02:36:23Z</time>
      </trkpt>
      <trkpt lat="44.11018" lon="6.28264">
        <ele>822</ele>
        <time>2010-01-01T02:36:24Z</time>
      </trkpt>
      <trkpt lat="44.11016" lon="6.28264">
        <ele>822</ele>
        <time>2010-01-01T02:36:24Z</time>
      </trkpt>
      <trkpt lat="44.1097" lon="6.28237">
        <ele>810</ele>
        <time>2010-01-01T02:36:44Z</time>
      </trkpt>
      <trkpt lat="44.10909" lon="6.2824">
        <ele>798</ele>
        <time>2010-01-01T02:37:09Z</time>
      </trkpt>
      <trkpt lat="44.10835" lon="6.28201">
        <ele>787</ele>
        <time>2010-01-01T02:37:41Z</time>
      </trkpt>
      <trkpt lat="44.1076" lon="6.28105">
        <ele>766</ele>
        <time>2010-01-01T02:38:21Z</time>
      </trkpt>
      <trkpt lat="44.1071" lon="6.28064">
        <ele>759</ele>
        <time>2010-01-01T02:38:44Z</time>
      </trkpt>
      <trkpt lat="44.10647" lon="6.28009">
        <ele>752</ele>
        <time>2010-01-01T02:39:14Z</time>
      </trkpt>
      <trkpt lat="44.10577" lon="6.28003">
        <ele>745</ele>
        <time>2010-01-01T02:39:42Z</time>
      </trkpt>
      <trkpt lat="44.10528" lon="6.27961">
        <ele>736</ele>
        <time>2010-01-01T02:40:05Z</time>
      </trkpt>
      <trkpt lat="44.1047" lon="6.27944">
        <ele>730</ele>
        <time>2010-01-01T02:40:29Z</time>
      </trkpt>
      <trkpt lat="44.10395" lon="6.27932">
        <ele>722</ele>
        <time>2010-01-01T02:40:59Z</time>
      </trkpt>
      <trkpt lat="44.1031" lon="6.27961">
        <ele>708</ele>
        <time>2010-01-01T02:41:34Z</time>
      </trkpt>
      <trkpt lat="44.10255" lon="6.27928">
        <ele>702</ele>
        <time>2010-01-01T02:41:59Z</time>
      </trkpt>
      <trkpt lat="44.10215" lon="6.27903">
        <ele>698</ele>
        <time>2010-01-01T02:42:16Z</time>
      </trkpt>
      <trkpt lat="44.10188" lon="6.27891">
        <ele>697</ele>
        <time>2010-01-01T02:42:27Z</time>
      </trkpt>
      <trkpt lat="44.10128" lon="6.27874">
        <ele>695</ele>
        <time>2010-01-01T02:42:52Z</time>
      </trkpt>
      <trkpt lat="44.10109" lon="6.27828">
        <ele>694</ele>
        <time>2010-01-01T02:43:07Z</time>
      </trkpt>
      <trkpt lat="44.10014" lon="6.27769">
        <ele>692</ele>
        <time>2010-01-01T02:43:49Z</time>
      </trkpt>
      <trkpt lat="44.09978" lon="6.277">
        <ele>690</ele>
        <time>2010-01-01T02:44:14Z</time>
      </trkpt>
      <trkpt lat="44.09937" lon="6.27657">
        <ele>687</ele>
        <time>2010-01-01T02:44:34Z</time>
      </trkpt>
      <trkpt lat="44.0992" lon="6.27628">
        <ele>690</ele>
        <time>2010-01-01T02:44:45Z</time>
      </trkpt>
      <trkpt lat="44.09859" lon="6.2759">
        <ele>684</ele>
        <time>2010-01-01T02:45:11Z</time>
      </trkpt>
      <trkpt lat="44.09793" lon="6.27581">
        <ele>684</ele>
        <time>2010-01-01T02:45:38Z</time>
      </trkpt>
      <trkpt lat="44.09717" lon="6.27518">
        <ele>683</ele>
        <time>2010-01-01T02:46:13Z</time>
      </trkpt>
      <trkpt lat="44.09637" lon="6.27492">
        <ele>679</ele>
        <time>2010-01-01T02:46:46Z</time>
      </trkpt>
      <trkpt lat="44.09551" lon="6.27446">
        <ele>677</ele>
        <time>2010-01-01T02:47:23Z</time>
      </trkpt>
      <trkpt lat="44.0946" lon="6.27425">
        <ele>675</ele>
        <time>2010-01-01T02:48:00Z</time>
      </trkpt>
      <trkpt lat="44.09437" lon="6.27351">
        <ele>663</ele>
        <time>2010-01-01T02:48:23Z</time>
      </trkpt>
      <trkpt lat="44.09322" lon="6.27286">
        <ele>654</ele>
        <time>2010-01-01T02:49:13Z</time>
      </trkpt>
      <trkpt lat="44.09224" lon="6.27296">
        <ele>650</ele>
        <time>2010-01-01T02:49:52Z</time>
      </trkpt>
      <trkpt lat="44.09138" lon="6.27285">
        <ele>648</ele>
        <time>2010-01-01T02:50:27Z</time>
      </trkpt>
      <trkpt lat="44.09037" lon="6.27165">
        <ele>644</ele>
        <time>2010-01-01T02:51:20Z</time>
      </trkpt>
      <trkpt lat="44.08974" lon="6.27352">
        <ele>647</ele>
        <time>2010-01-01T02:52:19Z</time>
      </trkpt>
      <trkpt lat="44.08955" lon="6.27398">
        <ele>648</ele>
        <time>2010-01-01T02:52:35Z</time>
      </trkpt>
      <trkpt lat="44.08942" lon="6.2735">
        <ele>649</ele>
        <time>2010-01-01T02:52:49Z</time>
      </trkpt>
      <trkpt lat="44.08915" lon="6.27373">
        <ele>655</ele>
        <time>2010-01-01T02:53:02Z</time>
      </trkpt>
      <trkpt lat="44.08901" lon="6.27367">
        <ele>656</ele>
        <time>2010-01-01T02:53:08Z</time>
      </trkpt>
      <trkpt lat="44.08884" lon="6.2736">
        <ele>657</ele>
        <time>2010-01-01T02:53:15Z</time>
      </trkpt>
      <trkpt lat="44.08874" lon="6.27358">
        <ele>658</ele>
        <time>2010-01-01T02:53:19Z</time>
      </trkpt>
      <trkpt lat="44.08858" lon="6.27356">
        <ele>660</ele>
        <time>2010-01-01T02:53:25Z</time>
      </trkpt>
      <trkpt lat="44.08832" lon="6.27362">
        <ele>670</ele>
        <time>2010-01-01T02:53:36Z</time>
      </trkpt>
      <trkpt lat="44.08802" lon="6.27361">
        <ele>673</ele>
        <time>2010-01-01T02:53:48Z</time>
      </trkpt>
      <trkpt lat="44.08761" lon="6.27326">
        <ele>676</ele>
        <time>2010-01-01T02:54:07Z</time>
      </trkpt>
      <trkpt lat="44.08736" lon="6.27307">
        <ele>681</ele>
        <time>2010-01-01T02:54:19Z</time>
      </trkpt>
      <trkpt lat="44.08718" lon="6.27298">
        <ele>682</ele>
        <time>2010-01-01T02:54:27Z</time>
      </trkpt>
      <trkpt lat="44.08699" lon="6.27304">
        <ele>682</ele>
        <time>2010-01-01T02:54:34Z</time>
      </trkpt>
      <trkpt lat="44.08683" lon="6.27294">
        <ele>683</ele>
        <time>2010-01-01T02:54:41Z</time>
      </trkpt>
      <trkpt lat="44.08665" lon="6.27281">
        <ele>685</ele>
        <time>2010-01-01T02:54:49Z</time>
      </trkpt>
      <trkpt lat="44.08639" lon="6.27262">
        <ele>685</ele>
        <time>2010-01-01T02:55:01Z</time>
      </trkpt>
      <trkpt lat="44.08605" lon="6.27343">
        <ele>691</ele>
        <time>2010-01-01T02:55:28Z</time>
      </trkpt>
      <trkpt lat="44.0856" lon="6.2737">
        <ele>694</ele>
        <time>2010-01-01T02:55:48Z</time>
      </trkpt>
      <trkpt lat="44.08512" lon="6.27391">
        <ele>696</ele>
        <time>2010-01-01T02:56:08Z</time>
      </trkpt>
      <trkpt lat="44.08464" lon="6.27412">
        <ele>696</ele>
        <time>2010-01-01T02:56:28Z</time>
      </trkpt>
      <trkpt lat="44.08423" lon="6.27435">
        <ele>703</ele>
        <time>2010-01-01T02:56:46Z</time>
      </trkpt>
      <trkpt lat="44.08379" lon="6.27434">
        <ele>702</ele>
        <time>2010-01-01T02:57:03Z</time>
      </trkpt>
      <trkpt lat="44.08332" lon="6.27479">
        <ele>708</ele>
        <time>2010-01-01T02:57:26Z</time>
      </trkpt>
      <trkpt lat="44.08322" lon="6.27453">
        <ele>707</ele>
        <time>2010-01-01T02:57:35Z</time>
      </trkpt>
      <trkpt lat="44.08296" lon="6.27462">
        <ele>709</ele>
        <time>2010-01-01T02:57:45Z</time>
      </trkpt>
      <trkpt lat="44.08262" lon="6.27469">
        <ele>712</ele>
        <time>2010-01-01T02:57:59Z</time>
      </trkpt>
      <trkpt lat="44.08238" lon="6.27484">
        <ele>721</ele>
        <time>2010-01-01T02:58:10Z</time>
      </trkpt>
      <trkpt lat="44.08223" lon="6.27498">
        <ele>722</ele>
        <time>2010-01-01T02:58:17Z</time>
      </trkpt>
      <trkpt lat="44.08195" lon="6.27506">
        <ele>728</ele>
        <time>2010-01-01T02:58:28Z</time>
      </trkpt>
      <trkpt lat="44.0816" lon="6.2753">
        <ele>737</ele>
        <time>2010-01-01T02:58:44Z</time>
      </trkpt>
      <trkpt lat="44.08125" lon="6.2755">
        <ele>741</ele>
        <time>2010-01-01T02:58:59Z</time>
      </trkpt>
      <trkpt lat="44.08092" lon="6.27557">
        <ele>745</ele>
        <time>2010-01-01T02:59:13Z</time>
      </trkpt>
      <trkpt lat="44.08085" lon="6.27533">
        <ele>744</ele>
        <time>2010-01-01T02:59:20Z</time>
      </trkpt>
      <trkpt lat="44.08096" lon="6.27506">
        <ele>744</ele>
        <time>2010-01-01T02:59:29Z</time>
      </trkpt>
      <trkpt lat="44.08083" lon="6.27506">
        <ele>749</ele>
        <time>2010-01-01T02:59:34Z</time>
      </trkpt>
      <trkpt lat="44.08072" lon="6.27514">
        <ele>753</ele>
        <time>2010-01-01T02:59:39Z</time>
      </trkpt>
      <trkpt lat="44.08072" lon="6.27492">
        <ele>753</ele>
        <time>2010-01-01T02:59:45Z</time>
      </trkpt>
      <trkpt lat="44.08067" lon="6.27478">
        <ele>757</ele>
        <time>2010-01-01T02:59:50Z</time>
      </trkpt>
      <trkpt lat="44.08055" lon="6.27494">
        <ele>757</ele>
        <time>2010-01-01T02:59:57Z</time>
      </trkpt>
      <trkpt lat="44.08034" lon="6.27519">
        <ele>759</ele>
        <time>2010-01-01T03:00:08Z</time>
      </trkpt>
      <trkpt lat="44.08002" lon="6.27511">
        <ele>764</ele>
        <time>2010-01-01T03:00:21Z</time>
      </trkpt>
      <trkpt lat="44.08003" lon="6.27509">
        <ele>765</ele>
        <time>2010-01-01T03:00:21Z</time>
      </trkpt>
      <trkpt lat="44.07977" lon="6.27399">
        <ele>766</ele>
        <time>2010-01-01T03:00:55Z</time>
      </trkpt>
      <trkpt lat="44.07979" lon="6.27301">
        <ele>758</ele>
        <time>2010-01-01T03:01:23Z</time>
      </trkpt>
      <trkpt lat="44.07994" lon="6.27236">
        <ele>754</ele>
        <time>2010-01-01T03:01:43Z</time>
      </trkpt>
      <trkpt lat="44.07955" lon="6.27177">
        <ele>756</ele>
        <time>2010-01-01T03:02:06Z</time>
      </trkpt>
      <trkpt lat="44.07836" lon="6.2725">
        <ele>747</ele>
        <time>2010-01-01T03:02:58Z</time>
      </trkpt>
      <trkpt lat="44.0778" lon="6.27283">
        <ele>747</ele>
        <time>2010-01-01T03:03:22Z</time>
      </trkpt>
      <trkpt lat="44.07679" lon="6.27348">
        <ele>734</ele>
        <time>2010-01-01T03:04:07Z</time>
      </trkpt>
      <trkpt lat="44.07633" lon="6.27368">
        <ele>727</ele>
        <time>2010-01-01T03:04:26Z</time>
      </trkpt>
      <trkpt lat="44.07603" lon="6.27389">
        <ele>725</ele>
        <time>2010-01-01T03:04:40Z</time>
      </trkpt>
      <trkpt lat="44.07583" lon="6.27365">
        <ele>725</ele>
        <time>2010-01-01T03:04:50Z</time>
      </trkpt>
      <trkpt lat="44.07573" lon="6.27348">
        <ele>727</ele>
        <time>2010-01-01T03:04:56Z</time>
      </trkpt>
      <trkpt lat="44.07557" lon="6.27341">
        <ele>729</ele>
        <time>2010-01-01T03:05:03Z</time>
      </trkpt>
      <trkpt lat="44.07538" lon="6.27328">
        <ele>729</ele>
        <time>2010-01-01T03:05:12Z</time>
      </trkpt>
      <trkpt lat="44.07496" lon="6.27258">
        <ele>728</ele>
        <time>2010-01-01T03:05:38Z</time>
      </trkpt>
      <trkpt lat="44.07551" lon="6.27302">
        <ele>727</ele>
        <time>2010-01-01T03:06:03Z</time>
      </trkpt>
      <trkpt lat="44.07609" lon="6.27324">
        <ele>730</ele>
        <time>2010-01-01T03:06:27Z</time>
      </trkpt>
      <trkpt lat="44.07559" lon="6.27197">
        <ele>721</ele>
        <time>2010-01-01T03:07:09Z</time>
      </trkpt>
      <trkpt lat="44.07562" lon="6.27062">
        <ele>704</ele>
        <time>2010-01-01T03:07:48Z</time>
      </trkpt>
      <trkpt lat="44.07566" lon="6.27029">
        <ele>701</ele>
        <time>2010-01-01T03:07:57Z</time>
      </trkpt>
      <trkpt lat="44.0754" lon="6.27062">
        <ele>699</ele>
        <time>2010-01-01T03:08:12Z</time>
      </trkpt>
      <trkpt lat="44.07516" lon="6.27104">
        <ele>700</ele>
        <time>2010-01-01T03:08:27Z</time>
      </trkpt>
      <trkpt lat="44.07484" lon="6.27097">
        <ele>692</ele>
        <time>2010-01-01T03:08:40Z</time>
      </trkpt>
      <trkpt lat="44.07441" lon="6.27064">
        <ele>687</ele>
        <time>2010-01-01T03:08:59Z</time>
      </trkpt>
      <trkpt lat="44.07371" lon="6.27096">
        <ele>698</ele>
        <time>2010-01-01T03:09:29Z</time>
      </trkpt>
      <trkpt lat="44.07282" lon="6.27075">
        <ele>690</ele>
        <time>2010-01-01T03:10:05Z</time>
      </trkpt>
      <trkpt lat="44.07217" lon="6.27142">
        <ele>697</ele>
        <time>2010-01-01T03:10:37Z</time>
      </trkpt>
      <trkpt lat="44.07161" lon="6.27173">
        <ele>695</ele>
        <time>2010-01-01T03:11:02Z</time>
      </trkpt>
      <trkpt lat="44.07095" lon="6.27161">
        <ele>695</ele>
        <time>2010-01-01T03:11:28Z</time>
      </trkpt>
      <trkpt lat="44.0708" lon="6.27136">
        <ele>702</ele>
        <time>2010-01-01T03:11:37Z</time>
      </trkpt>
      <trkpt lat="44.07109" lon="6.27105">
        <ele>700</ele>
        <time>2010-01-01T03:11:52Z</time>
      </trkpt>
      <trkpt lat="44.07128" lon="6.27057">
        <ele>709</ele>
        <time>2010-01-01T03:12:08Z</time>
      </trkpt>
      <trkpt lat="44.07146" lon="6.2703">
        <ele>711</ele>
        <time>2010-01-01T03:12:18Z</time>
      </trkpt>
      <trkpt lat="44.07177" lon="6.26992">
        <ele>718</ele>
        <time>2010-01-01T03:12:35Z</time>
      </trkpt>
      <trkpt lat="44.0721" lon="6.26959">
        <ele>723</ele>
        <time>2010-01-01T03:12:51Z</time>
      </trkpt>
      <trkpt lat="44.07251" lon="6.26928">
        <ele>726</ele>
        <time>2010-01-01T03:13:10Z</time>
      </trkpt>
      <trkpt lat="44.07285" lon="6.2691">
        <ele>737</ele>
        <time>2010-01-01T03:13:24Z</time>
      </trkpt>
      <trkpt lat="44.07299" lon="6.26878">
        <ele>740</ele>
        <time>2010-01-01T03:13:35Z</time>
      </trkpt>
      <trkpt lat="44.07316" lon="6.26852">
        <ele>745</ele>
        <time>2010-01-01T03:13:45Z</time>
      </trkpt>
      <trkpt lat="44.0734" lon="6.26864">
        <ele>738</ele>
        <time>2010-01-01T03:13:55Z</time>
      </trkpt>
      <trkpt lat="44.07362" lon="6.26857">
        <ele>738</ele>
        <time>2010-01-01T03:14:04Z</time>
      </trkpt>
      <trkpt lat="44.07399" lon="6.26839">
        <ele>739</ele>
        <time>2010-01-01T03:14:20Z</time>
      </trkpt>
      <trkpt lat="44.07426" lon="6.26836">
        <ele>734</ele>
        <time>2010-01-01T03:14:31Z</time>
      </trkpt>
      <trkpt lat="44.07442" lon="6.26827">
        <ele>739</ele>
        <time>2010-01-01T03:14:38Z</time>
      </trkpt>
      <trkpt lat="44.07479" lon="6.2681">
        <ele>733</ele>
        <time>2010-01-01T03:14:54Z</time>
      </trkpt>
      <trkpt lat="44.07491" lon="6.26806">
        <ele>732</ele>
        <time>2010-01-01T03:14:58Z</time>
      </trkpt>
      <trkpt lat="44.07471" lon="6.26765">
        <ele>741</ele>
        <time>2010-01-01T03:15:12Z</time>
      </trkpt>
      <trkpt lat="44.07409" lon="6.26751">
        <ele>761</ele>
        <time>2010-01-01T03:15:38Z</time>
      </trkpt>
      <trkpt lat="44.0741" lon="6.2673">
        <ele>771</ele>
        <time>2010-01-01T03:15:44Z</time>
      </trkpt>
      <trkpt lat="44.07404" lon="6.26754">
        <ele>761</ele>
        <time>2010-01-01T03:15:51Z</time>
      </trkpt>
      <trkpt lat="44.07437" lon="6.26719">
        <ele>763</ele>
        <time>2010-01-01T03:16:08Z</time>
      </trkpt>
      <trkpt lat="44.07476" lon="6.26679">
        <ele>766</ele>
        <time>2010-01-01T03:16:28Z</time>
      </trkpt>
      <trkpt lat="44.07499" lon="6.26668">
        <ele>771</ele>
        <time>2010-01-01T03:16:37Z</time>
      </trkpt>
      <trkpt lat="44.07511" lon="6.26638">
        <ele>766</ele>
        <time>2010-01-01T03:16:47Z</time>
      </trkpt>
      <trkpt lat="44.07484" lon="6.26651">
        <ele>780</ele>
        <time>2010-01-01T03:16:59Z</time>
      </trkpt>
      <trkpt lat="44.07499" lon="6.26626">
        <ele>783</ele>
        <time>2010-01-01T03:17:08Z</time>
      </trkpt>
      <trkpt lat="44.07501" lon="6.26599">
        <ele>775</ele>
        <time>2010-01-01T03:17:16Z</time>
      </trkpt>
      <trkpt lat="44.07536" lon="6.26583">
        <ele>762</ele>
        <time>2010-01-01T03:17:30Z</time>
      </trkpt>
      <trkpt lat="44.07495" lon="6.26507">
        <ele>774</ele>
        <time>2010-01-01T03:17:58Z</time>
      </trkpt>
      <trkpt lat="44.0745" lon="6.26428">
        <ele>778</ele>
        <time>2010-01-01T03:18:26Z</time>
      </trkpt>
      <trkpt lat="44.07472" lon="6.26329">
        <ele>778</ele>
        <time>2010-01-01T03:18:56Z</time>
      </trkpt>
      <trkpt lat="44.07511" lon="6.26225">
        <ele>833</ele>
        <time>2010-01-01T03:19:30Z</time>
      </trkpt>
      <trkpt lat="44.07547" lon="6.2613">
        <ele>879</ele>
        <time>2010-01-01T03:20:01Z</time>
      </trkpt>
      <trkpt lat="44.07532" lon="6.26073">
        <ele>904</ele>
        <time>2010-01-01T03:20:19Z</time>
      </trkpt>
      <trkpt lat="44.07514" lon="6.2601">
        <ele>919</ele>
        <time>2010-01-01T03:20:38Z</time>
      </trkpt>
      <trkpt lat="44.07475" lon="6.25959">
        <ele>926</ele>
        <time>2010-01-01T03:20:59Z</time>
      </trkpt>
      <trkpt lat="44.07419" lon="6.25942">
        <ele>917</ele>
        <time>2010-01-01T03:21:23Z</time>
      </trkpt>
      <trkpt lat="44.07367" lon="6.25902">
        <ele>897</ele>
        <time>2010-01-01T03:21:46Z</time>
      </trkpt>
      <trkpt lat="44.0737" lon="6.25822">
        <ele>922</ele>
        <time>2010-01-01T03:22:09Z</time>
      </trkpt>
      <trkpt lat="44.07344" lon="6.25767">
        <ele>921</ele>
        <time>2010-01-01T03:22:28Z</time>
      </trkpt>
      <trkpt lat="44.07345" lon="6.25691">
        <ele>946</ele>
        <time>2010-01-01T03:22:50Z</time>
      </trkpt>
      <trkpt lat="44.07327" lon="6.25585">
        <ele>967</ele>
        <time>2010-01-01T03:23:21Z</time>
      </trkpt>
      <trkpt lat="44.07258" lon="6.25549">
        <ele>955</ele>
        <time>2010-01-01T03:23:51Z</time>
      </trkpt>
      <trkpt lat="44.07254" lon="6.25503">
        <ele>953</ele>
        <time>2010-01-01T03:24:04Z</time>
      </trkpt>
      <trkpt lat="44.07249" lon="6.25537">
        <ele>927</ele>
        <time>2010-01-01T03:24:14Z</time>
      </trkpt>
      <trkpt lat="44.07147" lon="6.25599">
        <ele>880</ele>
        <time>2010-01-01T03:24:59Z</time>
      </trkpt>
      <trkpt lat="44.07069" lon="6.25665">
        <ele>880</ele>
        <time>2010-01-01T03:25:35Z</time>
      </trkpt>
      <trkpt lat="44.07067" lon="6.25657">
        <ele>882</ele>
        <time>2010-01-01T03:25:38Z</time>
      </trkpt>
      <trkpt lat="44.07043" lon="6.25677">
        <ele>900</ele>
        <time>2010-01-01T03:25:49Z</time>
      </trkpt>
      <trkpt lat="44.07013" lon="6.25689">
        <ele>912</ele>
        <time>2010-01-01T03:26:02Z</time>
      </trkpt>
      <trkpt lat="44.07014" lon="6.25659">
        <ele>912</ele>
        <time>2010-01-01T03:26:10Z</time>
      </trkpt>
      <trkpt lat="44.06953" lon="6.25746">
        <ele>971</ele>
        <time>2010-01-01T03:26:45Z</time>
      </trkpt>
      <trkpt lat="44.07033" lon="6.25685">
        <ele>905</ele>
        <time>2010-01-01T03:27:22Z</time>
      </trkpt>
      <trkpt lat="44.07089" lon="6.25586">
        <ele>869</ele>
        <time>2010-01-01T03:27:58Z</time>
      </trkpt>
      <trkpt lat="44.0709" lon="6.25497">
        <ele>879</ele>
        <time>2010-01-01T03:28:23Z</time>
      </trkpt>
      <trkpt lat="44.0708" lon="6.25425">
        <ele>884</ele>
        <time>2010-01-01T03:28:44Z</time>
      </trkpt>
      <trkpt lat="44.07052" lon="6.25375">
        <ele>892</ele>
        <time>2010-01-01T03:29:03Z</time>
      </trkpt>
      <trkpt lat="44.07015" lon="6.25309">
        <ele>899</ele>
        <time>2010-01-01T03:29:27Z</time>
      </trkpt>
      <trkpt lat="44.07002" lon="6.25248">
        <ele>899</ele>
        <time>2010-01-01T03:29:45Z</time>
      </trkpt>
      <trkpt lat="44.06967" lon="6.25194">
        <ele>907</ele>
        <time>2010-01-01T03:30:06Z</time>
      </trkpt>
      <trkpt lat="44.06912" lon="6.25161">
        <ele>909</ele>
        <time>2010-01-01T03:30:30Z</time>
      </trkpt>
      <trkpt lat="44.06884" lon="6.25157">
        <ele>915</ele>
        <time>2010-01-01T03:30:41Z</time>
      </trkpt>
      <trkpt lat="44.06853" lon="6.25144">
        <ele>916</ele>
        <time>2010-01-01T03:30:54Z</time>
      </trkpt>
      <trkpt lat="44.0678" lon="6.25119">
        <ele>926</ele>
        <time>2010-01-01T03:31:24Z</time>
      </trkpt>
      <trkpt lat="44.06672" lon="6.25041">
        <ele>943</ele>
        <time>2010-01-01T03:32:13Z</time>
      </trkpt>
      <trkpt lat="44.0656" lon="6.24972">
        <ele>954</ele>
        <time>2010-01-01T03:33:02Z</time>
      </trkpt>
      <trkpt lat="44.06452" lon="6.24906">
        <ele>965</ele>
        <time>2010-01-01T03:33:49Z</time>
      </trkpt>
      <trkpt lat="44.06364" lon="6.24892">
        <ele>980</ele>
        <time>2010-01-01T03:34:25Z</time>
      </trkpt>
      <trkpt lat="44.06289" lon="6.24857">
        <ele>989</ele>
        <time>2010-01-01T03:34:56Z</time>
      </trkpt>
      <trkpt lat="44.06193" lon="6.2484">
        <ele>1006</ele>
        <time>2010-01-01T03:35:35Z</time>
      </trkpt>
      <trkpt lat="44.06085" lon="6.24811">
        <ele>1011</ele>
        <time>2010-01-01T03:36:19Z</time>
      </trkpt>
      <trkpt lat="44.06007" lon="6.24838">
        <ele>1022</ele>
        <time>2010-01-01T03:36:51Z</time>
      </trkpt>
      <trkpt lat="44.05957" lon="6.24854">
        <ele>1033</ele>
        <time>2010-01-01T03:37:12Z</time>
      </trkpt>
      <trkpt lat="44.05971" lon="6.24864">
        <ele>1032</ele>
        <time>2010-01-01T03:37:18Z</time>
      </trkpt>
      <trkpt lat="44.06045" lon="6.24699">
        <ele>1027</ele>
        <time>2010-01-01T03:38:14Z</time>
      </trkpt>
      <trkpt lat="44.06126" lon="6.24614">
        <ele>1034</ele>
        <time>2010-01-01T03:38:55Z</time>
      </trkpt>
      <trkpt lat="44.06217" lon="6.24587">
        <ele>1037</ele>
        <time>2010-01-01T03:39:32Z</time>
      </trkpt>
      <trkpt lat="44.06255" lon="6.24557">
        <ele>1058</ele>
        <time>2010-01-01T03:39:49Z</time>
      </trkpt>
      <trkpt lat="44.06316" lon="6.24527">
        <ele>1064</ele>
        <time>2010-01-01T03:40:15Z</time>
      </trkpt>
      <trkpt lat="44.06408" lon="6.24475">
        <ele>1082</ele>
        <time>2010-01-01T03:40:55Z</time>
      </trkpt>
      <trkpt lat="44.06498" lon="6.24479">
        <ele>1079</ele>
        <time>2010-01-01T03:41:31Z</time>
      </trkpt>
      <trkpt lat="44.0665" lon="6.24502">
        <ele>1077</ele>
        <time>2010-01-01T03:42:32Z</time>
      </trkpt>
      <trkpt lat="44.06779" lon="6.24558">
        <ele>1084</ele>
        <time>2010-01-01T03:43:26Z</time>
      </trkpt>
      <trkpt lat="44.06801" lon="6.24556">
        <ele>1085</ele>
        <time>2010-01-01T03:43:35Z</time>
      </trkpt>
      <trkpt lat="44.06801" lon="6.24541">
        <ele>1085</ele>
        <time>2010-01-01T03:43:39Z</time>
      </trkpt>
      <trkpt lat="44.06789" lon="6.24527">
        <ele>1085</ele>
        <time>2010-01-01T03:43:46Z</time>
      </trkpt>
      <trkpt lat="44.0678" lon="6.24518">
        <ele>1086</ele>
        <time>2010-01-01T03:43:50Z</time>
      </trkpt>
      <trkpt lat="44.06751" lon="6.24466">
        <ele>1091</ele>
        <time>2010-01-01T03:44:09Z</time>
      </trkpt>
      <trkpt lat="44.06735" lon="6.24454">
        <ele>1095</ele>
        <time>2010-01-01T03:44:17Z</time>
      </trkpt>
      <trkpt lat="44.0669" lon="6.24441">
        <ele>1097</ele>
        <time>2010-01-01T03:44:35Z</time>
      </trkpt>
      <trkpt lat="44.06661" lon="6.24421">
        <ele>1100</ele>
        <time>2010-01-01T03:44:48Z</time>
      </trkpt>
      <trkpt lat="44.06646" lon="6.24405">
        <ele>1102</ele>
        <time>2010-01-01T03:44:56Z</time>
      </trkpt>
      <trkpt lat="44.06629" lon="6.24393">
        <ele>1102</ele>
        <time>2010-01-01T03:45:03Z</time>
      </trkpt>
      <trkpt lat="44.06605" lon="6.24381">
        <ele>1101</ele>
        <time>2010-01-01T03:45:14Z</time>
      </trkpt>
      <trkpt lat="44.06586" lon="6.24364">
        <ele>1103</ele>
        <time>2010-01-01T03:45:22Z</time>
      </trkpt>
      <trkpt lat="44.06576" lon="6.2435">
        <ele>1105</ele>
        <time>2010-01-01T03:45:28Z</time>
      </trkpt>
      <trkpt lat="44.06563" lon="6.24328">
        <ele>1105</ele>
        <time>2010-01-01T03:45:36Z</time>
      </trkpt>
      <trkpt lat="44.06546" lon="6.24323">
        <ele>1105</ele>
        <time>2010-01-01T03:45:43Z</time>
      </trkpt>
      <trkpt lat="44.06506" lon="6.243">
        <ele>1106</ele>
        <time>2010-01-01T03:46:00Z</time>
      </trkpt>
      <trkpt lat="44.06477" lon="6.24295">
        <ele>1124</ele>
        <time>2010-01-01T03:46:12Z</time>
      </trkpt>
      <trkpt lat="44.06467" lon="6.24298">
        <ele>1126</ele>
        <time>2010-01-01T03:46:16Z</time>
      </trkpt>
      <trkpt lat="44.06467" lon="6.24282">
        <ele>1126</ele>
        <time>2010-01-01T03:46:21Z</time>
      </trkpt>
      <trkpt lat="44.06455" lon="6.2428">
        <ele>1129</ele>
        <time>2010-01-01T03:46:25Z</time>
      </trkpt>
      <trkpt lat="44.06441" lon="6.24284">
        <ele>1132</ele>
        <time>2010-01-01T03:46:31Z</time>
      </trkpt>
      <trkpt lat="44.0643" lon="6.24288">
        <ele>1133</ele>
        <time>2010-01-01T03:46:36Z</time>
      </trkpt>
      <trkpt lat="44.06431" lon="6.2428">
        <ele>1135</ele>
        <time>2010-01-01T03:46:38Z</time>
      </trkpt>
      <trkpt lat="44.0644" lon="6.24258">
        <ele>1136</ele>
        <time>2010-01-01T03:46:45Z</time>
      </trkpt>
      <trkpt lat="44.06423" lon="6.24258">
        <ele>1146</ele>
        <time>2010-01-01T03:46:52Z</time>
      </trkpt>
      <trkpt lat="44.06414" lon="6.24256">
        <ele>1155</ele>
        <time>2010-01-01T03:46:56Z</time>
      </trkpt>
      <trkpt lat="44.06404" lon="6.24255">
        <ele>1156</ele>
        <time>2010-01-01T03:47:00Z</time>
      </trkpt>
      <trkpt lat="44.06388" lon="6.24256">
        <ele>1157</ele>
        <time>2010-01-01T03:47:06Z</time>
      </trkpt>
      <trkpt lat="44.06378" lon="6.24261">
        <ele>1158</ele>
        <time>2010-01-01T03:47:10Z</time>
      </trkpt>
      <trkpt lat="44.06358" lon="6.24258">
        <ele>1164</ele>
        <time>2010-01-01T03:47:19Z</time>
      </trkpt>
      <trkpt lat="44.06349" lon="6.24252">
        <ele>1168</ele>
        <time>2010-01-01T03:47:22Z</time>
      </trkpt>
      <trkpt lat="44.06342" lon="6.24243">
        <ele>1173</ele>
        <time>2010-01-01T03:47:26Z</time>
      </trkpt>
      <trkpt lat="44.06317" lon="6.24211">
        <ele>1178</ele>
        <time>2010-01-01T03:47:40Z</time>
      </trkpt>
      <trkpt lat="44.06286" lon="6.24193">
        <ele>1180</ele>
        <time>2010-01-01T03:47:53Z</time>
      </trkpt>
      <trkpt lat="44.06261" lon="6.24187">
        <ele>1182</ele>
        <time>2010-01-01T03:48:03Z</time>
      </trkpt>
      <trkpt lat="44.06231" lon="6.24187">
        <ele>1191</ele>
        <time>2010-01-01T03:48:16Z</time>
      </trkpt>
      <trkpt lat="44.0621" lon="6.24179">
        <ele>1194</ele>
        <time>2010-01-01T03:48:24Z</time>
      </trkpt>
      <trkpt lat="44.06197" lon="6.24171">
        <ele>1197</ele>
        <time>2010-01-01T03:48:30Z</time>
      </trkpt>
      <trkpt lat="44.06186" lon="6.24166">
        <ele>1196</ele>
        <time>2010-01-01T03:48:35Z</time>
      </trkpt>
      <trkpt lat="44.06167" lon="6.24165">
        <ele>1207</ele>
        <time>2010-01-01T03:48:42Z</time>
      </trkpt>
      <trkpt lat="44.06149" lon="6.24158">
        <ele>1209</ele>
        <time>2010-01-01T03:48:50Z</time>
      </trkpt>
      <trkpt lat="44.0612" lon="6.24143">
        <ele>1211</ele>
        <time>2010-01-01T03:49:02Z</time>
      </trkpt>
      <trkpt lat="44.06105" lon="6.24141">
        <ele>1213</ele>
        <time>2010-01-01T03:49:08Z</time>
      </trkpt>
      <trkpt lat="44.06091" lon="6.24139">
        <ele>1214</ele>
        <time>2010-01-01T03:49:14Z</time>
      </trkpt>
      <trkpt lat="44.06065" lon="6.24133">
        <ele>1229</ele>
        <time>2010-01-01T03:49:24Z</time>
      </trkpt>
      <trkpt lat="44.0605" lon="6.24135">
        <ele>1231</ele>
        <time>2010-01-01T03:49:30Z</time>
      </trkpt>
      <trkpt lat="44.06037" lon="6.24133">
        <ele>1233</ele>
        <time>2010-01-01T03:49:36Z</time>
      </trkpt>
      <trkpt lat="44.06017" lon="6.24129">
        <ele>1235</ele>
        <time>2010-01-01T03:49:44Z</time>
      </trkpt>
      <trkpt lat="44.06002" lon="6.24123">
        <ele>1236</ele>
        <time>2010-01-01T03:49:50Z</time>
      </trkpt>
      <trkpt lat="44.05989" lon="6.2412">
        <ele>1252</ele>
        <time>2010-01-01T03:49:55Z</time>
      </trkpt>
      <trkpt lat="44.05976" lon="6.24118">
        <ele>1254</ele>
        <time>2010-01-01T03:50:00Z</time>
      </trkpt>
      <trkpt lat="44.05955" lon="6.2411">
        <ele>1258</ele>
        <time>2010-01-01T03:50:09Z</time>
      </trkpt>
      <trkpt lat="44.0594" lon="6.24106">
        <ele>1261</ele>
        <time>2010-01-01T03:50:15Z</time>
      </trkpt>
      <trkpt lat="44.05925" lon="6.24106">
        <ele>1264</ele>
        <time>2010-01-01T03:50:21Z</time>
      </trkpt>
      <trkpt lat="44.05912" lon="6.24101">
        <ele>1281</ele>
        <time>2010-01-01T03:50:27Z</time>
      </trkpt>
      <trkpt lat="44.05894" lon="6.24091">
        <ele>1284</ele>
        <time>2010-01-01T03:50:35Z</time>
      </trkpt>
      <trkpt lat="44.05882" lon="6.24085">
        <ele>1287</ele>
        <time>2010-01-01T03:50:39Z</time>
      </trkpt>
      <trkpt lat="44.05868" lon="6.24079">
        <ele>1287</ele>
        <time>2010-01-01T03:50:45Z</time>
      </trkpt>
      <trkpt lat="44.05849" lon="6.24072">
        <ele>1293</ele>
        <time>2010-01-01T03:50:53Z</time>
      </trkpt>
      <trkpt lat="44.05823" lon="6.24056">
        <ele>1314</ele>
        <time>2010-01-01T03:51:05Z</time>
      </trkpt>
      <trkpt lat="44.05811" lon="6.24049">
        <ele>1316</ele>
        <time>2010-01-01T03:51:10Z</time>
      </trkpt>
      <trkpt lat="44.05796" lon="6.2403">
        <ele>1318</ele>
        <time>2010-01-01T03:51:18Z</time>
      </trkpt>
      <trkpt lat="44.05772" lon="6.23998">
        <ele>1312</ele>
        <time>2010-01-01T03:51:31Z</time>
      </trkpt>
      <trkpt lat="44.05748" lon="6.2396">
        <ele>1334</ele>
        <time>2010-01-01T03:51:46Z</time>
      </trkpt>
      <trkpt lat="44.05715" lon="6.23928">
        <ele>1334</ele>
        <time>2010-01-01T03:52:02Z</time>
      </trkpt>
      <trkpt lat="44.05681" lon="6.23886">
        <ele>1321</ele>
        <time>2010-01-01T03:52:20Z</time>
      </trkpt>
      <trkpt lat="44.05662" lon="6.23869">
        <ele>1344</ele>
        <time>2010-01-01T03:52:29Z</time>
      </trkpt>
      <trkpt lat="44.05647" lon="6.23848">
        <ele>1339</ele>
        <time>2010-01-01T03:52:38Z</time>
      </trkpt>
      <trkpt lat="44.0563" lon="6.23841">
        <ele>1346</ele>
        <time>2010-01-01T03:52:45Z</time>
      </trkpt>
      <trkpt lat="44.05611" lon="6.23824">
        <ele>1334</ele>
        <time>2010-01-01T03:52:54Z</time>
      </trkpt>
      <trkpt lat="44.05596" lon="6.23818">
        <ele>1340</ele>
        <time>2010-01-01T03:53:00Z</time>
      </trkpt>
      <trkpt lat="44.05574" lon="6.23797">
        <ele>1359</ele>
        <time>2010-01-01T03:53:11Z</time>
      </trkpt>
      <trkpt lat="44.05543" lon="6.23769">
        <ele>1359</ele>
        <time>2010-01-01T03:53:25Z</time>
      </trkpt>
      <trkpt lat="44.05491" lon="6.23737">
        <ele>1360</ele>
        <time>2010-01-01T03:53:48Z</time>
      </trkpt>
      <trkpt lat="44.05456" lon="6.23733">
        <ele>1362</ele>
        <time>2010-01-01T03:54:03Z</time>
      </trkpt>
      <trkpt lat="44.05429" lon="6.23721">
        <ele>1365</ele>
        <time>2010-01-01T03:54:14Z</time>
      </trkpt>
      <trkpt lat="44.05399" lon="6.23716">
        <ele>1374</ele>
        <time>2010-01-01T03:54:26Z</time>
      </trkpt>
      <trkpt lat="44.05354" lon="6.23704">
        <ele>1372</ele>
        <time>2010-01-01T03:54:44Z</time>
      </trkpt>
      <trkpt lat="44.05298" lon="6.23697">
        <ele>1374</ele>
        <time>2010-01-01T03:55:07Z</time>
      </trkpt>
      <trkpt lat="44.05272" lon="6.23708">
        <ele>1377</ele>
        <time>2010-01-01T03:55:18Z</time>
      </trkpt>
      <trkpt lat="44.0522" lon="6.23789">
        <ele>1401</ele>
        <time>2010-01-01T03:55:49Z</time>
      </trkpt>
      <trkpt lat="44.05226" lon="6.23773">
        <ele>1399</ele>
        <time>2010-01-01T03:55:54Z</time>
      </trkpt>
      <trkpt lat="44.05223" lon="6.23748">
        <ele>1382</ele>
        <time>2010-01-01T03:56:01Z</time>
      </trkpt>
      <trkpt lat="44.05279" lon="6.23719">
        <ele>1380</ele>
        <time>2010-01-01T03:56:25Z</time>
      </trkpt>
      <trkpt lat="44.05262" lon="6.23663">
        <ele>1345</ele>
        <time>2010-01-01T03:56:42Z</time>
      </trkpt>
      <trkpt lat="44.05274" lon="6.23643">
        <ele>1335</ele>
        <time>2010-01-01T03:56:50Z</time>
      </trkpt>
      <trkpt lat="44.05258" lon="6.23665">
        <ele>1348</ele>
        <time>2010-01-01T03:56:59Z</time>
      </trkpt>
      <trkpt lat="44.05227" lon="6.23703">
        <ele>1372</ele>
        <time>2010-01-01T03:57:15Z</time>
      </trkpt>
      <trkpt lat="44.05211" lon="6.23723">
        <ele>1376</ele>
        <time>2010-01-01T03:57:24Z</time>
      </trkpt>
      <trkpt lat="44.05186" lon="6.23733">
        <ele>1377</ele>
        <time>2010-01-01T03:57:34Z</time>
      </trkpt>
      <trkpt lat="44.05167" lon="6.2374">
        <ele>1379</ele>
        <time>2010-01-01T03:57:42Z</time>
      </trkpt>
      <trkpt lat="44.05159" lon="6.23753">
        <ele>1383</ele>
        <time>2010-01-01T03:57:47Z</time>
      </trkpt>
      <trkpt lat="44.05148" lon="6.23752">
        <ele>1384</ele>
        <time>2010-01-01T03:57:52Z</time>
      </trkpt>
      <trkpt lat="44.05138" lon="6.23734">
        <ele>1379</ele>
        <time>2010-01-01T03:57:58Z</time>
      </trkpt>
      <trkpt lat="44.05127" lon="6.23723">
        <ele>1379</ele>
        <time>2010-01-01T03:58:04Z</time>
      </trkpt>
      <trkpt lat="44.05108" lon="6.23716">
        <ele>1380</ele>
        <time>2010-01-01T03:58:12Z</time>
      </trkpt>
      <trkpt lat="44.05059" lon="6.23693">
        <ele>1388</ele>
        <time>2010-01-01T03:58:32Z</time>
      </trkpt>
      <trkpt lat="44.05046" lon="6.23686">
        <ele>1389</ele>
        <time>2010-01-01T03:58:38Z</time>
      </trkpt>
      <trkpt lat="44.05023" lon="6.23673">
        <ele>1392</ele>
        <time>2010-01-01T03:58:48Z</time>
      </trkpt>
      <trkpt lat="44.04982" lon="6.23649">
        <ele>1395</ele>
        <time>2010-01-01T03:59:06Z</time>
      </trkpt>
      <trkpt lat="44.04927" lon="6.23641">
        <ele>1396</ele>
        <time>2010-01-01T03:59:28Z</time>
      </trkpt>
      <trkpt lat="44.048" lon="6.23543">
        <ele>1400</ele>
        <time>2010-01-01T04:00:26Z</time>
      </trkpt>
      <trkpt lat="44.04716" lon="6.23487">
        <ele>1403</ele>
        <time>2010-01-01T04:01:03Z</time>
      </trkpt>
      <trkpt lat="44.04696" lon="6.23416">
        <ele>1395</ele>
        <time>2010-01-01T04:01:25Z</time>
      </trkpt>
      <trkpt lat="44.04661" lon="6.23365">
        <ele>1401</ele>
        <time>2010-01-01T04:01:45Z</time>
      </trkpt>
      <trkpt lat="44.04624" lon="6.23289">
        <ele>1387</ele>
        <time>2010-01-01T04:02:12Z</time>
      </trkpt>
      <trkpt lat="44.04608" lon="6.23229">
        <ele>1365</ele>
        <time>2010-01-01T04:02:30Z</time>
      </trkpt>
      <trkpt lat="44.04601" lon="6.23202">
        <ele>1359</ele>
        <time>2010-01-01T04:02:38Z</time>
      </trkpt>
      <trkpt lat="44.04611" lon="6.23188">
        <ele>1355</ele>
        <time>2010-01-01T04:02:44Z</time>
      </trkpt>
      <trkpt lat="44.04629" lon="6.23167">
        <ele>1323</ele>
        <time>2010-01-01T04:02:53Z</time>
      </trkpt>
      <trkpt lat="44.04634" lon="6.23146">
        <ele>1319</ele>
        <time>2010-01-01T04:03:00Z</time>
      </trkpt>
      <trkpt lat="44.0469" lon="6.23122">
        <ele>1289</ele>
        <time>2010-01-01T04:03:23Z</time>
      </trkpt>
      <trkpt lat="44.04726" lon="6.23122">
        <ele>1284</ele>
        <time>2010-01-01T04:03:38Z</time>
      </trkpt>
      <trkpt lat="44.04747" lon="6.23158">
        <ele>1289</ele>
        <time>2010-01-01T04:03:51Z</time>
      </trkpt>
      <trkpt lat="44.04734" lon="6.23166">
        <ele>1290</ele>
        <time>2010-01-01T04:03:57Z</time>
      </trkpt>
      <trkpt lat="44.0475" lon="6.23184">
        <ele>1290</ele>
        <time>2010-01-01T04:04:05Z</time>
      </trkpt>
      <trkpt lat="44.04761" lon="6.23197">
        <ele>1291</ele>
        <time>2010-01-01T04:04:11Z</time>
      </trkpt>
      <trkpt lat="44.04754" lon="6.2315">
        <ele>1272</ele>
        <time>2010-01-01T04:04:24Z</time>
      </trkpt>
      <trkpt lat="44.04767" lon="6.23149">
        <ele>1267</ele>
        <time>2010-01-01T04:04:29Z</time>
      </trkpt>
      <trkpt lat="44.04777" lon="6.23124">
        <ele>1257</ele>
        <time>2010-01-01T04:04:37Z</time>
      </trkpt>
      <trkpt lat="44.04787" lon="6.23118">
        <ele>1253</ele>
        <time>2010-01-01T04:04:42Z</time>
      </trkpt>
      <trkpt lat="44.04794" lon="6.23101">
        <ele>1249</ele>
        <time>2010-01-01T04:04:47Z</time>
      </trkpt>
      <trkpt lat="44.0481" lon="6.23093">
        <ele>1241</ele>
        <time>2010-01-01T04:04:54Z</time>
      </trkpt>
      <trkpt lat="44.04821" lon="6.23061">
        <ele>1220</ele>
        <time>2010-01-01T04:05:04Z</time>
      </trkpt>
      <trkpt lat="44.04838" lon="6.2305">
        <ele>1195</ele>
        <time>2010-01-01T04:05:12Z</time>
      </trkpt>
      <trkpt lat="44.0484" lon="6.23002">
        <ele>1191</ele>
        <time>2010-01-01T04:05:26Z</time>
      </trkpt>
      <trkpt lat="44.04874" lon="6.23001">
        <ele>1181</ele>
        <time>2010-01-01T04:05:39Z</time>
      </trkpt>
      <trkpt lat="44.0489" lon="6.22996">
        <ele>1157</ele>
        <time>2010-01-01T04:05:46Z</time>
      </trkpt>
      <trkpt lat="44.04875" lon="6.22924">
        <ele>1151</ele>
        <time>2010-01-01T04:06:08Z</time>
      </trkpt>
      <trkpt lat="44.04856" lon="6.22854">
        <ele>1126</ele>
        <time>2010-01-01T04:06:29Z</time>
      </trkpt>
      <trkpt lat="44.04816" lon="6.22782">
        <ele>1114</ele>
        <time>2010-01-01T04:06:55Z</time>
      </trkpt>
      <trkpt lat="44.04801" lon="6.22725">
        <ele>1093</ele>
        <time>2010-01-01T04:07:12Z</time>
      </trkpt>
      <trkpt lat="44.0478" lon="6.22728">
        <ele>1095</ele>
        <time>2010-01-01T04:07:21Z</time>
      </trkpt>
      <trkpt lat="44.04705" lon="6.22738">
        <ele>1101</ele>
        <time>2010-01-01T04:07:51Z</time>
      </trkpt>
      <trkpt lat="44.04627" lon="6.22709">
        <ele>1113</ele>
        <time>2010-01-01T04:08:23Z</time>
      </trkpt>
      <trkpt lat="44.04606" lon="6.22706">
        <ele>1115</ele>
        <time>2010-01-01T04:08:32Z</time>
      </trkpt>
      <trkpt lat="44.04585" lon="6.22692">
        <ele>1115</ele>
        <time>2010-01-01T04:08:41Z</time>
      </trkpt>
      <trkpt lat="44.04553" lon="6.22681">
        <ele>1130</ele>
        <time>2010-01-01T04:08:55Z</time>
      </trkpt>
      <trkpt lat="44.0453" lon="6.22667">
        <ele>1132</ele>
        <time>2010-01-01T04:09:04Z</time>
      </trkpt>
      <trkpt lat="44.04512" lon="6.22658">
        <ele>1126</ele>
        <time>2010-01-01T04:09:12Z</time>
      </trkpt>
      <trkpt lat="44.0447" lon="6.22639">
        <ele>1125</ele>
        <time>2010-01-01T04:09:30Z</time>
      </trkpt>
      <trkpt lat="44.04442" lon="6.22602">
        <ele>1118</ele>
        <time>2010-01-01T04:09:45Z</time>
      </trkpt>
      <trkpt lat="44.04382" lon="6.22592">
        <ele>1110</ele>
        <time>2010-01-01T04:10:10Z</time>
      </trkpt>
      <trkpt lat="44.04337" lon="6.22563">
        <ele>1092</ele>
        <time>2010-01-01T04:10:29Z</time>
      </trkpt>
      <trkpt lat="44.04287" lon="6.22576">
        <ele>1076</ele>
        <time>2010-01-01T04:10:50Z</time>
      </trkpt>
      <trkpt lat="44.04196" lon="6.22672">
        <ele>1081</ele>
        <time>2010-01-01T04:11:35Z</time>
      </trkpt>
      <trkpt lat="44.04174" lon="6.22619">
        <ele>1066</ele>
        <time>2010-01-01T04:11:53Z</time>
      </trkpt>
      <trkpt lat="44.04202" lon="6.22547">
        <ele>1051</ele>
        <time>2010-01-01T04:12:17Z</time>
      </trkpt>
      <trkpt lat="44.04233" lon="6.22463">
        <ele>1029</ele>
        <time>2010-01-01T04:12:44Z</time>
      </trkpt>
      <trkpt lat="44.04282" lon="6.22383">
        <ele>1020</ele>
        <time>2010-01-01T04:13:14Z</time>
      </trkpt>
      <trkpt lat="44.04302" lon="6.22328">
        <ele>1002</ele>
        <time>2010-01-01T04:13:32Z</time>
      </trkpt>
      <trkpt lat="44.04244" lon="6.22296">
        <ele>978</ele>
        <time>2010-01-01T04:13:57Z</time>
      </trkpt>
      <trkpt lat="44.04225" lon="6.22197">
        <ele>965</ele>
        <time>2010-01-01T04:14:26Z</time>
      </trkpt>
      <trkpt lat="44.04237" lon="6.22208">
        <ele>967</ele>
        <time>2010-01-01T04:14:32Z</time>
      </trkpt>
      <trkpt lat="44.04234" lon="6.22105">
        <ele>961</ele>
        <time>2010-01-01T04:15:02Z</time>
      </trkpt>
      <trkpt lat="44.04229" lon="6.22087">
        <ele>961</ele>
        <time>2010-01-01T04:15:07Z</time>
      </trkpt>
      <trkpt lat="44.04254" lon="6.22167">
        <ele>974</ele>
        <time>2010-01-01T04:15:32Z</time>
      </trkpt>
      <trkpt lat="44.04306" lon="6.22118">
        <ele>963</ele>
        <time>2010-01-01T04:15:57Z</time>
      </trkpt>
      <trkpt lat="44.04345" lon="6.22074">
        <ele>946</ele>
        <time>2010-01-01T04:16:17Z</time>
      </trkpt>
      <trkpt lat="44.04391" lon="6.22051">
        <ele>941</ele>
        <time>2010-01-01T04:16:37Z</time>
      </trkpt>
      <trkpt lat="44.0445" lon="6.22053">
        <ele>942</ele>
        <time>2010-01-01T04:17:01Z</time>
      </trkpt>
      <trkpt lat="44.04507" lon="6.21955">
        <ele>923</ele>
        <time>2010-01-01T04:17:37Z</time>
      </trkpt>
      <trkpt lat="44.04543" lon="6.21854">
        <ele>905</ele>
        <time>2010-01-01T04:18:09Z</time>
      </trkpt>
      <trkpt lat="44.0456" lon="6.21743">
        <ele>890</ele>
        <time>2010-01-01T04:18:42Z</time>
      </trkpt>
      <trkpt lat="44.04561" lon="6.21631">
        <ele>891</ele>
        <time>2010-01-01T04:19:14Z</time>
      </trkpt>
      <trkpt lat="44.04524" lon="6.21571">
        <ele>885</ele>
        <time>2010-01-01T04:19:37Z</time>
      </trkpt>
      <trkpt lat="44.04523" lon="6.21535">
        <ele>883</ele>
        <time>2010-01-01T04:19:47Z</time>
      </trkpt>
      <trkpt lat="44.04532" lon="6.21482">
        <ele>871</ele>
        <time>2010-01-01T04:20:03Z</time>
      </trkpt>
      <trkpt lat="44.04512" lon="6.21433">
        <ele>863</ele>
        <time>2010-01-01T04:20:19Z</time>
      </trkpt>
      <trkpt lat="44.0446" lon="6.21346">
        <ele>840</ele>
        <time>2010-01-01T04:20:52Z</time>
      </trkpt>
      <trkpt lat="44.04462" lon="6.21295">
        <ele>832</ele>
        <time>2010-01-01T04:21:06Z</time>
      </trkpt>
      <trkpt lat="44.04472" lon="6.2127">
        <ele>829</ele>
        <time>2010-01-01T04:21:15Z</time>
      </trkpt>
      <trkpt lat="44.0446" lon="6.21241">
        <ele>823</ele>
        <time>2010-01-01T04:21:24Z</time>
      </trkpt>
      <trkpt lat="44.04468" lon="6.21134">
        <ele>817</ele>
        <time>2010-01-01T04:21:55Z</time>
      </trkpt>
      <trkpt lat="44.04453" lon="6.20963">
        <ele>809</ele>
        <time>2010-01-01T04:22:45Z</time>
      </trkpt>
      <trkpt lat="44.04463" lon="6.2086">
        <ele>801</ele>
        <time>2010-01-01T04:23:15Z</time>
      </trkpt>
      <trkpt lat="44.04479" lon="6.2082">
        <ele>796</ele>
        <time>2010-01-01T04:23:28Z</time>
      </trkpt>
      <trkpt lat="44.04493" lon="6.20787">
        <ele>794</ele>
        <time>2010-01-01T04:23:39Z</time>
      </trkpt>
      <trkpt lat="44.04512" lon="6.20712">
        <ele>787</ele>
        <time>2010-01-01T04:24:02Z</time>
      </trkpt>
      <trkpt lat="44.04522" lon="6.20638">
        <ele>780</ele>
        <time>2010-01-01T04:24:23Z</time>
      </trkpt>
      <trkpt lat="44.04545" lon="6.20608">
        <ele>778</ele>
        <time>2010-01-01T04:24:36Z</time>
      </trkpt>
      <trkpt lat="44.04565" lon="6.20563">
        <ele>771</ele>
        <time>2010-01-01T04:24:51Z</time>
      </trkpt>
      <trkpt lat="44.04552" lon="6.20438">
        <ele>761</ele>
        <time>2010-01-01T04:25:28Z</time>
      </trkpt>
      <trkpt lat="44.04563" lon="6.2037">
        <ele>752</ele>
        <time>2010-01-01T04:25:48Z</time>
      </trkpt>
      <trkpt lat="44.04573" lon="6.2032">
        <ele>745</ele>
        <time>2010-01-01T04:26:03Z</time>
      </trkpt>
      <trkpt lat="44.04592" lon="6.20203">
        <ele>736</ele>
        <time>2010-01-01T04:26:37Z</time>
      </trkpt>
      <trkpt lat="44.0462" lon="6.20066">
        <ele>719</ele>
        <time>2010-01-01T04:27:18Z</time>
      </trkpt>
      <trkpt lat="44.0469" lon="6.19946">
        <ele>713</ele>
        <time>2010-01-01T04:28:03Z</time>
      </trkpt>
      <trkpt lat="44.04755" lon="6.19944">
        <ele>712</ele>
        <time>2010-01-01T04:28:29Z</time>
      </trkpt>
      <trkpt lat="44.04646" lon="6.19909">
        <ele>700</ele>
        <time>2010-01-01T04:29:14Z</time>
      </trkpt>
      <trkpt lat="44.04616" lon="6.19892">
        <ele>694</ele>
        <time>2010-01-01T04:29:27Z</time>
      </trkpt>
      <trkpt lat="44.04601" lon="6.19891">
        <ele>692</ele>
        <time>2010-01-01T04:29:33Z</time>
      </trkpt>
      <trkpt lat="44.04549" lon="6.19902">
        <ele>682</ele>
        <time>2010-01-01T04:29:54Z</time>
      </trkpt>
      <trkpt lat="44.04526" lon="6.19906">
        <ele>680</ele>
        <time>2010-01-01T04:30:03Z</time>
      </trkpt>
      <trkpt lat="44.04512" lon="6.19908">
        <ele>679</ele>
        <time>2010-01-01T04:30:09Z</time>
      </trkpt>
      <trkpt lat="44.0451" lon="6.19901">
        <ele>679</ele>
        <time>2010-01-01T04:30:11Z</time>
      </trkpt>
      <trkpt lat="44.04508" lon="6.19896">
        <ele>679</ele>
        <time>2010-01-01T04:30:13Z</time>
      </trkpt>
      <trkpt lat="44.04439" lon="6.19854">
        <ele>678</ele>
        <time>2010-01-01T04:30:43Z</time>
      </trkpt>
      <trkpt lat="44.04373" lon="6.19842">
        <ele>682</ele>
        <time>2010-01-01T04:31:09Z</time>
      </trkpt>
      <trkpt lat="44.04335" lon="6.19841">
        <ele>682</ele>
        <time>2010-01-01T04:31:25Z</time>
      </trkpt>
      <trkpt lat="44.04322" lon="6.19826">
        <ele>684</ele>
        <time>2010-01-01T04:31:32Z</time>
      </trkpt>
      <trkpt lat="44.04327" lon="6.19773">
        <ele>684</ele>
        <time>2010-01-01T04:31:47Z</time>
      </trkpt>
      <trkpt lat="44.04309" lon="6.19751">
        <ele>684</ele>
        <time>2010-01-01T04:31:56Z</time>
      </trkpt>
      <trkpt lat="44.04269" lon="6.19715">
        <ele>686</ele>
        <time>2010-01-01T04:32:16Z</time>
      </trkpt>
      <trkpt lat="44.0423" lon="6.19651">
        <ele>682</ele>
        <time>2010-01-01T04:32:39Z</time>
      </trkpt>
      <trkpt lat="44.04197" lon="6.19585">
        <ele>676</ele>
        <time>2010-01-01T04:33:03Z</time>
      </trkpt>
      <trkpt lat="44.04176" lon="6.19538">
        <ele>673</ele>
        <time>2010-01-01T04:33:19Z</time>
      </trkpt>
      <trkpt lat="44.04154" lon="6.19437">
        <ele>663</ele>
        <time>2010-01-01T04:33:49Z</time>
      </trkpt>
      <trkpt lat="44.04121" lon="6.19382">
        <ele>660</ele>
        <time>2010-01-01T04:34:10Z</time>
      </trkpt>
      <trkpt lat="44.04082" lon="6.19306">
        <ele>647</ele>
        <time>2010-01-01T04:34:37Z</time>
      </trkpt>
      <trkpt lat="44.04041" lon="6.19231">
        <ele>640</ele>
        <time>2010-01-01T04:35:04Z</time>
      </trkpt>
      <trkpt lat="44.0402" lon="6.19154">
        <ele>633</ele>
        <time>2010-01-01T04:35:27Z</time>
      </trkpt>
      <trkpt lat="44.04008" lon="6.19056">
        <ele>629</ele>
        <time>2010-01-01T04:35:56Z</time>
      </trkpt>
      <trkpt lat="44.0396" lon="6.18973">
        <ele>620</ele>
        <time>2010-01-01T04:36:27Z</time>
      </trkpt>
      <trkpt lat="44.0393" lon="6.18997">
        <ele>620</ele>
        <time>2010-01-01T04:36:41Z</time>
      </trkpt>
      <trkpt lat="44.03961" lon="6.18977">
        <ele>620</ele>
        <time>2010-01-01T04:36:54Z</time>
      </trkpt>
      <trkpt lat="44.04022" lon="6.18835">
        <ele>620</ele>
        <time>2010-01-01T04:37:42Z</time>
      </trkpt>
      <trkpt lat="44.03946" lon="6.18612">
        <ele>606</ele>
        <time>2010-01-01T04:38:53Z</time>
      </trkpt>
      <trkpt lat="44.03919" lon="6.18449">
        <ele>598</ele>
        <time>2010-01-01T04:39:41Z</time>
      </trkpt>
      <trkpt lat="44.03957" lon="6.18309">
        <ele>596</ele>
        <time>2010-01-01T04:40:24Z</time>
      </trkpt>
      <trkpt lat="44.03958" lon="6.18204">
        <ele>595</ele>
        <time>2010-01-01T04:40:54Z</time>
      </trkpt>
      <trkpt lat="44.03915" lon="6.18081">
        <ele>595</ele>
        <time>2010-01-01T04:41:34Z</time>
      </trkpt>
      <trkpt lat="44.03955" lon="6.1792">
        <ele>588</ele>
        <time>2010-01-01T04:42:23Z</time>
      </trkpt>
      <trkpt lat="44.03978" lon="6.17815">
        <ele>583</ele>
        <time>2010-01-01T04:42:54Z</time>
      </trkpt>
      <trkpt lat="44.0398" lon="6.17723">
        <ele>578</ele>
        <time>2010-01-01T04:43:21Z</time>
      </trkpt>
      <trkpt lat="44.04019" lon="6.17612">
        <ele>576</ele>
        <time>2010-01-01T04:43:56Z</time>
      </trkpt>
      <trkpt lat="44.0403" lon="6.17478">
        <ele>572</ele>
        <time>2010-01-01T04:44:35Z</time>
      </trkpt>
      <trkpt lat="44.04043" lon="6.17325">
        <ele>566</ele>
        <time>2010-01-01T04:45:19Z</time>
      </trkpt>
      <trkpt lat="44.04073" lon="6.17027">
        <ele>558</ele>
        <time>2010-01-01T04:46:46Z</time>
      </trkpt>
      <trkpt lat="44.0413" lon="6.16845">
        <ele>551</ele>
        <time>2010-01-01T04:47:43Z</time>
      </trkpt>
      <trkpt lat="44.04284" lon="6.16809">
        <ele>547</ele>
        <time>2010-01-01T04:48:45Z</time>
      </trkpt>
      <trkpt lat="44.04411" lon="6.16749">
        <ele>543</ele>
        <time>2010-01-01T04:49:39Z</time>
      </trkpt>
      <trkpt lat="44.0455" lon="6.16667">
        <ele>541</ele>
        <time>2010-01-01T04:50:39Z</time>
      </trkpt>
      <trkpt lat="44.04712" lon="6.16558">
        <ele>538</ele>
        <time>2010-01-01T04:51:51Z</time>
      </trkpt>
      <trkpt lat="44.04855" lon="6.16392">
        <ele>531</ele>
        <time>2010-01-01T04:53:06Z</time>
      </trkpt>
      <trkpt lat="44.04973" lon="6.16447">
        <ele>534</ele>
        <time>2010-01-01T04:53:56Z</time>
      </trkpt>
      <trkpt lat="44.0515" lon="6.16701">
        <ele>534</ele>
        <time>2010-01-01T04:55:38Z</time>
      </trkpt>
      <trkpt lat="44.053" lon="6.16857">
        <ele>534</ele>
        <time>2010-01-01T04:56:53Z</time>
      </trkpt>
      <trkpt lat="44.05485" lon="6.17038">
        <ele>536</ele>
        <time>2010-01-01T04:58:23Z</time>
      </trkpt>
      <trkpt lat="44.05595" lon="6.17305">
        <ele>544</ele>
        <time>2010-01-01T04:59:52Z</time>
      </trkpt>
      <trkpt lat="44.05701" lon="6.17499">
        <ele>542</ele>
        <time>2010-01-01T05:01:02Z</time>
      </trkpt>
      <trkpt lat="44.05899" lon="6.17679">
        <ele>546</ele>
        <time>2010-01-01T05:02:37Z</time>
      </trkpt>
      <trkpt lat="44.06085" lon="6.17778">
        <ele>545</ele>
        <time>2010-01-01T05:03:56Z</time>
      </trkpt>
      <trkpt lat="44.06195" lon="6.17907">
        <ele>549</ele>
        <time>2010-01-01T05:04:54Z</time>
      </trkpt>
      <trkpt lat="44.06318" lon="6.18171">
        <ele>557</ele>
        <time>2010-01-01T05:06:24Z</time>
      </trkpt>
      <trkpt lat="44.06412" lon="6.18233">
        <ele>555</ele>
        <time>2010-01-01T05:07:06Z</time>
      </trkpt>
      <trkpt lat="44.06492" lon="6.18412">
        <ele>557</ele>
        <time>2010-01-01T05:08:06Z</time>
      </trkpt>
      <trkpt lat="44.06493" lon="6.18621">
        <ele>573</ele>
        <time>2010-01-01T05:09:06Z</time>
      </trkpt>
      <trkpt lat="44.06499" lon="6.18799">
        <ele>575</ele>
        <time>2010-01-01T05:09:58Z</time>
      </trkpt>
      <trkpt lat="44.06552" lon="6.19021">
        <ele>562</ele>
        <time>2010-01-01T05:11:05Z</time>
      </trkpt>
      <trkpt lat="44.06682" lon="6.19245">
        <ele>564</ele>
        <time>2010-01-01T05:12:28Z</time>
      </trkpt>
      <trkpt lat="44.06748" lon="6.19425">
        <ele>569</ele>
        <time>2010-01-01T05:13:26Z</time>
      </trkpt>
      <trkpt lat="44.0681" lon="6.19589">
        <ele>572</ele>
        <time>2010-01-01T05:14:20Z</time>
      </trkpt>
      <trkpt lat="44.06949" lon="6.19849">
        <ele>573</ele>
        <time>2010-01-01T05:15:52Z</time>
      </trkpt>
      <trkpt lat="44.07099" lon="6.20115">
        <ele>573</ele>
        <time>2010-01-01T05:17:30Z</time>
      </trkpt>
      <trkpt lat="44.07256" lon="6.2027">
        <ele>572</ele>
        <time>2010-01-01T05:18:47Z</time>
      </trkpt>
      <trkpt lat="44.07383" lon="6.20425">
        <ele>578</ele>
        <time>2010-01-01T05:19:55Z</time>
      </trkpt>
      <trkpt lat="44.07597" lon="6.20699">
        <ele>576</ele>
        <time>2010-01-01T05:21:51Z</time>
      </trkpt>
      <trkpt lat="44.0774" lon="6.20909">
        <ele>578</ele>
        <time>2010-01-01T05:23:14Z</time>
      </trkpt>
      <trkpt lat="44.07782" lon="6.21004">
        <ele>585</ele>
        <time>2010-01-01T05:23:46Z</time>
      </trkpt>
      <trkpt lat="44.07831" lon="6.21127">
        <ele>590</ele>
        <time>2010-01-01T05:24:27Z</time>
      </trkpt>
      <trkpt lat="44.07854" lon="6.2124">
        <ele>591</ele>
        <time>2010-01-01T05:25:00Z</time>
      </trkpt>
      <trkpt lat="44.079" lon="6.21439">
        <ele>600</ele>
        <time>2010-01-01T05:26:01Z</time>
      </trkpt>
      <trkpt lat="44.07936" lon="6.21587">
        <ele>591</ele>
        <time>2010-01-01T05:26:46Z</time>
      </trkpt>
      <trkpt lat="44.0799" lon="6.21715">
        <ele>586</ele>
        <time>2010-01-01T05:27:28Z</time>
      </trkpt>
      <trkpt lat="44.08032" lon="6.22014">
        <ele>592</ele>
        <time>2010-01-01T05:28:56Z</time>
      </trkpt>
      <trkpt lat="44.08067" lon="6.22197">
        <ele>594</ele>
        <time>2010-01-01T05:29:50Z</time>
      </trkpt>
      <trkpt lat="44.08227" lon="6.22453">
        <ele>590</ele>
        <time>2010-01-01T05:31:28Z</time>
      </trkpt>
      <trkpt lat="44.08378" lon="6.2266">
        <ele>594</ele>
        <time>2010-01-01T05:32:53Z</time>
      </trkpt>
      <trkpt lat="44.08649" lon="6.22785">
        <ele>590</ele>
        <time>2010-01-01T05:34:47Z</time>
      </trkpt>
      <trkpt lat="44.08843" lon="6.2293">
        <ele>590</ele>
        <time>2010-01-01T05:36:15Z</time>
      </trkpt>
      <trkpt lat="44.0902" lon="6.23079">
        <ele>593</ele>
        <time>2010-01-01T05:37:38Z</time>
      </trkpt>
      <trkpt lat="44.09119" lon="6.23192">
        <ele>596</ele>
        <time>2010-01-01T05:38:29Z</time>
      </trkpt>
      <trkpt lat="44.09553" lon="6.24051">
        <ele>607</ele>
        <time>2010-01-01T05:43:31Z</time>
      </trkpt>
    </trkseg>
  </trk>
</gpx>